<?xml version="1.0" encoding="UTF-8" standalone="no" ?>
<gpx xmlns="http://www.topografix.com/GPX/1/1" xmlns:xsi="http://www.w3.org/2001/XMLSchema-instance" xsi:schemaLocation="http://www.topografix.com/GPX/1/1 http://www.topografix.com/GPX/1/1/gpx.xsd" version="1.1" creator="VisuGPX - https://www.visugpx.com">
  <metadata>
    <name>Course à pied le midi</name>
  </metadata>
  <trk>
    <name><![CDATA[Course à pied le midi_1]]></name>
    <trkseg>
      <trkpt lat="44.39813" lon="4.38733">
        <ele>98.9</ele>
        <time>2024-02-29T10:06:34Z</time>
      </trkpt>
      <trkpt lat="44.39813" lon="4.38734">
        <ele>98.8</ele>
        <time>2024-02-29T10:06:35Z</time>
      </trkpt>
      <trkpt lat="44.39822" lon="4.38756">
        <ele>98.5</ele>
        <time>2024-02-29T10:06:45Z</time>
      </trkpt>
      <trkpt lat="44.39823" lon="4.38758">
        <ele>98.4</ele>
        <time>2024-02-29T10:06:46Z</time>
      </trkpt>
      <trkpt lat="44.39832" lon="4.38781">
        <ele>98.1</ele>
        <time>2024-02-29T10:06:53Z</time>
      </trkpt>
      <trkpt lat="44.39836" lon="4.38807">
        <ele>97.6</ele>
        <time>2024-02-29T10:07:00Z</time>
      </trkpt>
      <trkpt lat="44.3984" lon="4.38836">
        <ele>97.2</ele>
        <time>2024-02-29T10:07:08Z</time>
      </trkpt>
      <trkpt lat="44.39846" lon="4.38862">
        <ele>95.4</ele>
        <time>2024-02-29T10:07:16Z</time>
      </trkpt>
      <trkpt lat="44.39834" lon="4.38884">
        <ele>94.2</ele>
        <time>2024-02-29T10:07:22Z</time>
      </trkpt>
      <trkpt lat="44.39818" lon="4.38899">
        <ele>93.7</ele>
        <time>2024-02-29T10:07:31Z</time>
      </trkpt>
      <trkpt lat="44.39814" lon="4.38902">
        <ele>93.6</ele>
        <time>2024-02-29T10:07:35Z</time>
      </trkpt>
      <trkpt lat="44.39816" lon="4.38901">
        <ele>93.6</ele>
        <time>2024-02-29T10:07:39Z</time>
      </trkpt>
      <trkpt lat="44.39812" lon="4.38902">
        <ele>93.6</ele>
        <time>2024-02-29T10:07:55Z</time>
      </trkpt>
      <trkpt lat="44.39812" lon="4.38918">
        <ele>93.5</ele>
        <time>2024-02-29T10:08:01Z</time>
      </trkpt>
      <trkpt lat="44.39829" lon="4.38934">
        <ele>93.7</ele>
        <time>2024-02-29T10:08:08Z</time>
      </trkpt>
      <trkpt lat="44.39847" lon="4.38944">
        <ele>93.9</ele>
        <time>2024-02-29T10:08:15Z</time>
      </trkpt>
      <trkpt lat="44.39864" lon="4.38957">
        <ele>94.2</ele>
        <time>2024-02-29T10:08:22Z</time>
      </trkpt>
      <trkpt lat="44.39882" lon="4.3897">
        <ele>94.7</ele>
        <time>2024-02-29T10:08:28Z</time>
      </trkpt>
      <trkpt lat="44.399" lon="4.3898">
        <ele>95.4</ele>
        <time>2024-02-29T10:08:34Z</time>
      </trkpt>
      <trkpt lat="44.39919" lon="4.3898">
        <ele>96.4</ele>
        <time>2024-02-29T10:08:43Z</time>
      </trkpt>
      <trkpt lat="44.3993" lon="4.38961">
        <ele>96.7</ele>
        <time>2024-02-29T10:08:51Z</time>
      </trkpt>
      <trkpt lat="44.39938" lon="4.38935">
        <ele>98</ele>
        <time>2024-02-29T10:08:59Z</time>
      </trkpt>
      <trkpt lat="44.3995" lon="4.38912">
        <ele>99.5</ele>
        <time>2024-02-29T10:09:07Z</time>
      </trkpt>
      <trkpt lat="44.39962" lon="4.38892">
        <ele>100.9</ele>
        <time>2024-02-29T10:09:15Z</time>
      </trkpt>
      <trkpt lat="44.39971" lon="4.38869">
        <ele>102.4</ele>
        <time>2024-02-29T10:09:23Z</time>
      </trkpt>
      <trkpt lat="44.39982" lon="4.38847">
        <ele>103.7</ele>
        <time>2024-02-29T10:09:31Z</time>
      </trkpt>
      <trkpt lat="44.39996" lon="4.3883">
        <ele>104.9</ele>
        <time>2024-02-29T10:09:39Z</time>
      </trkpt>
      <trkpt lat="44.40011" lon="4.38814">
        <ele>106</ele>
        <time>2024-02-29T10:09:48Z</time>
      </trkpt>
      <trkpt lat="44.40025" lon="4.38797">
        <ele>106.5</ele>
        <time>2024-02-29T10:09:56Z</time>
      </trkpt>
      <trkpt lat="44.40019" lon="4.38775">
        <ele>106.4</ele>
        <time>2024-02-29T10:10:04Z</time>
      </trkpt>
      <trkpt lat="44.40005" lon="4.38755">
        <ele>106</ele>
        <time>2024-02-29T10:10:11Z</time>
      </trkpt>
      <trkpt lat="44.39991" lon="4.38734">
        <ele>105.3</ele>
        <time>2024-02-29T10:10:19Z</time>
      </trkpt>
      <trkpt lat="44.39978" lon="4.38714">
        <ele>104.4</ele>
        <time>2024-02-29T10:10:25Z</time>
      </trkpt>
      <trkpt lat="44.39964" lon="4.38692">
        <ele>103.8</ele>
        <time>2024-02-29T10:10:34Z</time>
      </trkpt>
      <trkpt lat="44.39952" lon="4.38671">
        <ele>103.3</ele>
        <time>2024-02-29T10:10:42Z</time>
      </trkpt>
      <trkpt lat="44.3994" lon="4.38652">
        <ele>102.8</ele>
        <time>2024-02-29T10:10:48Z</time>
      </trkpt>
      <trkpt lat="44.39929" lon="4.3863">
        <ele>102.4</ele>
        <time>2024-02-29T10:10:55Z</time>
      </trkpt>
      <trkpt lat="44.39916" lon="4.38609">
        <ele>102.3</ele>
        <time>2024-02-29T10:11:03Z</time>
      </trkpt>
      <trkpt lat="44.39905" lon="4.38587">
        <ele>102.2</ele>
        <time>2024-02-29T10:11:10Z</time>
      </trkpt>
      <trkpt lat="44.39892" lon="4.38566">
        <ele>102.4</ele>
        <time>2024-02-29T10:11:16Z</time>
      </trkpt>
      <trkpt lat="44.39881" lon="4.38545">
        <ele>102.5</ele>
        <time>2024-02-29T10:11:23Z</time>
      </trkpt>
      <trkpt lat="44.39868" lon="4.38524">
        <ele>102.4</ele>
        <time>2024-02-29T10:11:30Z</time>
      </trkpt>
      <trkpt lat="44.39856" lon="4.38502">
        <ele>102.2</ele>
        <time>2024-02-29T10:11:37Z</time>
      </trkpt>
      <trkpt lat="44.39843" lon="4.38482">
        <ele>101.8</ele>
        <time>2024-02-29T10:11:44Z</time>
      </trkpt>
      <trkpt lat="44.39829" lon="4.3846">
        <ele>101.1</ele>
        <time>2024-02-29T10:11:51Z</time>
      </trkpt>
      <trkpt lat="44.39816" lon="4.38437">
        <ele>89.5</ele>
        <time>2024-02-29T10:11:58Z</time>
      </trkpt>
      <trkpt lat="44.39805" lon="4.38415">
        <ele>89.9</ele>
        <time>2024-02-29T10:12:05Z</time>
      </trkpt>
      <trkpt lat="44.39792" lon="4.38394">
        <ele>90.3</ele>
        <time>2024-02-29T10:12:12Z</time>
      </trkpt>
      <trkpt lat="44.39779" lon="4.38372">
        <ele>90.8</ele>
        <time>2024-02-29T10:12:19Z</time>
      </trkpt>
      <trkpt lat="44.39766" lon="4.3835">
        <ele>91.8</ele>
        <time>2024-02-29T10:12:26Z</time>
      </trkpt>
      <trkpt lat="44.39754" lon="4.38326">
        <ele>92.6</ele>
        <time>2024-02-29T10:12:32Z</time>
      </trkpt>
      <trkpt lat="44.39742" lon="4.38305">
        <ele>92.8</ele>
        <time>2024-02-29T10:12:39Z</time>
      </trkpt>
      <trkpt lat="44.39732" lon="4.38289">
        <ele>92.9</ele>
        <time>2024-02-29T10:12:45Z</time>
      </trkpt>
      <trkpt lat="44.39733" lon="4.38291">
        <ele>92.9</ele>
        <time>2024-02-29T10:12:47Z</time>
      </trkpt>
      <trkpt lat="44.39745" lon="4.38312">
        <ele>92.7</ele>
        <time>2024-02-29T10:12:54Z</time>
      </trkpt>
      <trkpt lat="44.39756" lon="4.38335">
        <ele>92.4</ele>
        <time>2024-02-29T10:13:01Z</time>
      </trkpt>
      <trkpt lat="44.39766" lon="4.3836">
        <ele>91.5</ele>
        <time>2024-02-29T10:13:08Z</time>
      </trkpt>
      <trkpt lat="44.39775" lon="4.38381">
        <ele>90.7</ele>
        <time>2024-02-29T10:13:14Z</time>
      </trkpt>
      <trkpt lat="44.39786" lon="4.38404">
        <ele>90.2</ele>
        <time>2024-02-29T10:13:22Z</time>
      </trkpt>
      <trkpt lat="44.39799" lon="4.38424">
        <ele>89.9</ele>
        <time>2024-02-29T10:13:29Z</time>
      </trkpt>
      <trkpt lat="44.3981" lon="4.38448">
        <ele>89.4</ele>
        <time>2024-02-29T10:13:36Z</time>
      </trkpt>
      <trkpt lat="44.39802" lon="4.38471">
        <ele>89.1</ele>
        <time>2024-02-29T10:13:43Z</time>
      </trkpt>
      <trkpt lat="44.39787" lon="4.38488">
        <ele>89</ele>
        <time>2024-02-29T10:13:50Z</time>
      </trkpt>
      <trkpt lat="44.39781" lon="4.38495">
        <ele>89</ele>
        <time>2024-02-29T10:13:52Z</time>
      </trkpt>
      <trkpt lat="44.39773" lon="4.38501">
        <ele>89</ele>
        <time>2024-02-29T10:14:27Z</time>
      </trkpt>
      <trkpt lat="44.39769" lon="4.38502">
        <ele>89</ele>
        <time>2024-02-29T10:14:29Z</time>
      </trkpt>
      <trkpt lat="44.39752" lon="4.38513">
        <ele>88.9</ele>
        <time>2024-02-29T10:14:35Z</time>
      </trkpt>
      <trkpt lat="44.39734" lon="4.38528">
        <ele>88.7</ele>
        <time>2024-02-29T10:14:41Z</time>
      </trkpt>
      <trkpt lat="44.39716" lon="4.38542">
        <ele>88.1</ele>
        <time>2024-02-29T10:14:47Z</time>
      </trkpt>
      <trkpt lat="44.39699" lon="4.38555">
        <ele>87.4</ele>
        <time>2024-02-29T10:14:52Z</time>
      </trkpt>
      <trkpt lat="44.39682" lon="4.38568">
        <ele>87</ele>
        <time>2024-02-29T10:14:58Z</time>
      </trkpt>
      <trkpt lat="44.39664" lon="4.3857">
        <ele>87.3</ele>
        <time>2024-02-29T10:15:04Z</time>
      </trkpt>
      <trkpt lat="44.39649" lon="4.38556">
        <ele>88.2</ele>
        <time>2024-02-29T10:15:10Z</time>
      </trkpt>
      <trkpt lat="44.39634" lon="4.3854">
        <ele>89.1</ele>
        <time>2024-02-29T10:15:17Z</time>
      </trkpt>
      <trkpt lat="44.39615" lon="4.38526">
        <ele>89.6</ele>
        <time>2024-02-29T10:15:24Z</time>
      </trkpt>
      <trkpt lat="44.39599" lon="4.38511">
        <ele>89.9</ele>
        <time>2024-02-29T10:15:31Z</time>
      </trkpt>
      <trkpt lat="44.39581" lon="4.38497">
        <ele>90.3</ele>
        <time>2024-02-29T10:15:38Z</time>
      </trkpt>
      <trkpt lat="44.39564" lon="4.38482">
        <ele>90.7</ele>
        <time>2024-02-29T10:15:45Z</time>
      </trkpt>
      <trkpt lat="44.39548" lon="4.38466">
        <ele>91.1</ele>
        <time>2024-02-29T10:15:52Z</time>
      </trkpt>
      <trkpt lat="44.39529" lon="4.38453">
        <ele>91.4</ele>
        <time>2024-02-29T10:15:59Z</time>
      </trkpt>
      <trkpt lat="44.3951" lon="4.38445">
        <ele>91.7</ele>
        <time>2024-02-29T10:16:06Z</time>
      </trkpt>
      <trkpt lat="44.39491" lon="4.38434">
        <ele>92</ele>
        <time>2024-02-29T10:16:13Z</time>
      </trkpt>
      <trkpt lat="44.39473" lon="4.38424">
        <ele>92.3</ele>
        <time>2024-02-29T10:16:20Z</time>
      </trkpt>
      <trkpt lat="44.39456" lon="4.3841">
        <ele>92.6</ele>
        <time>2024-02-29T10:16:27Z</time>
      </trkpt>
      <trkpt lat="44.39439" lon="4.38394">
        <ele>93</ele>
        <time>2024-02-29T10:16:34Z</time>
      </trkpt>
      <trkpt lat="44.39424" lon="4.38379">
        <ele>93.5</ele>
        <time>2024-02-29T10:16:40Z</time>
      </trkpt>
      <trkpt lat="44.39408" lon="4.38365">
        <ele>94.4</ele>
        <time>2024-02-29T10:16:47Z</time>
      </trkpt>
      <trkpt lat="44.39392" lon="4.38351">
        <ele>96.1</ele>
        <time>2024-02-29T10:16:54Z</time>
      </trkpt>
      <trkpt lat="44.3939" lon="4.38326">
        <ele>96.6</ele>
        <time>2024-02-29T10:17:01Z</time>
      </trkpt>
      <trkpt lat="44.39401" lon="4.38305">
        <ele>96</ele>
        <time>2024-02-29T10:17:06Z</time>
      </trkpt>
      <trkpt lat="44.39411" lon="4.38283">
        <ele>95.6</ele>
        <time>2024-02-29T10:17:11Z</time>
      </trkpt>
      <trkpt lat="44.39421" lon="4.38258">
        <ele>95.3</ele>
        <time>2024-02-29T10:17:17Z</time>
      </trkpt>
      <trkpt lat="44.39422" lon="4.38231">
        <ele>95.3</ele>
        <time>2024-02-29T10:17:23Z</time>
      </trkpt>
      <trkpt lat="44.39421" lon="4.38206">
        <ele>95.4</ele>
        <time>2024-02-29T10:17:29Z</time>
      </trkpt>
      <trkpt lat="44.39423" lon="4.38177">
        <ele>95.7</ele>
        <time>2024-02-29T10:17:36Z</time>
      </trkpt>
      <trkpt lat="44.39428" lon="4.38153">
        <ele>96</ele>
        <time>2024-02-29T10:17:42Z</time>
      </trkpt>
      <trkpt lat="44.39431" lon="4.38128">
        <ele>96.4</ele>
        <time>2024-02-29T10:17:48Z</time>
      </trkpt>
      <trkpt lat="44.39434" lon="4.38103">
        <ele>96.9</ele>
        <time>2024-02-29T10:17:54Z</time>
      </trkpt>
      <trkpt lat="44.39423" lon="4.3808">
        <ele>97.6</ele>
        <time>2024-02-29T10:18:00Z</time>
      </trkpt>
      <trkpt lat="44.3941" lon="4.38058">
        <ele>98.5</ele>
        <time>2024-02-29T10:18:06Z</time>
      </trkpt>
      <trkpt lat="44.39398" lon="4.38039">
        <ele>99.4</ele>
        <time>2024-02-29T10:18:12Z</time>
      </trkpt>
      <trkpt lat="44.39387" lon="4.3802">
        <ele>99.5</ele>
        <time>2024-02-29T10:18:18Z</time>
      </trkpt>
      <trkpt lat="44.3939" lon="4.37993">
        <ele>98.5</ele>
        <time>2024-02-29T10:18:23Z</time>
      </trkpt>
      <trkpt lat="44.39394" lon="4.37965">
        <ele>97.7</ele>
        <time>2024-02-29T10:18:28Z</time>
      </trkpt>
      <trkpt lat="44.39398" lon="4.37939">
        <ele>97.2</ele>
        <time>2024-02-29T10:18:34Z</time>
      </trkpt>
      <trkpt lat="44.39413" lon="4.37919">
        <ele>96.7</ele>
        <time>2024-02-29T10:18:40Z</time>
      </trkpt>
      <trkpt lat="44.39432" lon="4.37914">
        <ele>96.6</ele>
        <time>2024-02-29T10:18:47Z</time>
      </trkpt>
      <trkpt lat="44.39451" lon="4.37906">
        <ele>96.7</ele>
        <time>2024-02-29T10:18:55Z</time>
      </trkpt>
      <trkpt lat="44.39471" lon="4.37901">
        <ele>96.9</ele>
        <time>2024-02-29T10:19:02Z</time>
      </trkpt>
      <trkpt lat="44.3949" lon="4.37896">
        <ele>97.2</ele>
        <time>2024-02-29T10:19:10Z</time>
      </trkpt>
      <trkpt lat="44.39511" lon="4.37888">
        <ele>97.4</ele>
        <time>2024-02-29T10:19:20Z</time>
      </trkpt>
      <trkpt lat="44.39529" lon="4.37887">
        <ele>97.6</ele>
        <time>2024-02-29T10:19:27Z</time>
      </trkpt>
      <trkpt lat="44.39547" lon="4.37879">
        <ele>97.7</ele>
        <time>2024-02-29T10:19:38Z</time>
      </trkpt>
      <trkpt lat="44.39566" lon="4.37873">
        <ele>97.9</ele>
        <time>2024-02-29T10:19:45Z</time>
      </trkpt>
      <trkpt lat="44.39586" lon="4.37865">
        <ele>98.1</ele>
        <time>2024-02-29T10:19:52Z</time>
      </trkpt>
      <trkpt lat="44.39604" lon="4.37858">
        <ele>98.3</ele>
        <time>2024-02-29T10:19:58Z</time>
      </trkpt>
      <trkpt lat="44.39622" lon="4.37852">
        <ele>98.4</ele>
        <time>2024-02-29T10:20:04Z</time>
      </trkpt>
      <trkpt lat="44.39641" lon="4.37844">
        <ele>98.4</ele>
        <time>2024-02-29T10:20:11Z</time>
      </trkpt>
      <trkpt lat="44.3966" lon="4.37837">
        <ele>98.4</ele>
        <time>2024-02-29T10:20:18Z</time>
      </trkpt>
      <trkpt lat="44.3968" lon="4.37831">
        <ele>98.2</ele>
        <time>2024-02-29T10:20:25Z</time>
      </trkpt>
      <trkpt lat="44.397" lon="4.37824">
        <ele>98.1</ele>
        <time>2024-02-29T10:20:32Z</time>
      </trkpt>
      <trkpt lat="44.39718" lon="4.37816">
        <ele>98</ele>
        <time>2024-02-29T10:20:38Z</time>
      </trkpt>
      <trkpt lat="44.39736" lon="4.37813">
        <ele>97.8</ele>
        <time>2024-02-29T10:20:44Z</time>
      </trkpt>
      <trkpt lat="44.39754" lon="4.37806">
        <ele>97.5</ele>
        <time>2024-02-29T10:20:51Z</time>
      </trkpt>
      <trkpt lat="44.39774" lon="4.37798">
        <ele>97.3</ele>
        <time>2024-02-29T10:20:58Z</time>
      </trkpt>
      <trkpt lat="44.39793" lon="4.3779">
        <ele>97.2</ele>
        <time>2024-02-29T10:21:05Z</time>
      </trkpt>
      <trkpt lat="44.39811" lon="4.37786">
        <ele>97.1</ele>
        <time>2024-02-29T10:21:12Z</time>
      </trkpt>
      <trkpt lat="44.39828" lon="4.37801">
        <ele>96.7</ele>
        <time>2024-02-29T10:21:19Z</time>
      </trkpt>
      <trkpt lat="44.39843" lon="4.37813">
        <ele>96.2</ele>
        <time>2024-02-29T10:21:25Z</time>
      </trkpt>
      <trkpt lat="44.39862" lon="4.37826">
        <ele>95.8</ele>
        <time>2024-02-29T10:21:32Z</time>
      </trkpt>
      <trkpt lat="44.3988" lon="4.37839">
        <ele>95.4</ele>
        <time>2024-02-29T10:21:39Z</time>
      </trkpt>
      <trkpt lat="44.39897" lon="4.37854">
        <ele>95.2</ele>
        <time>2024-02-29T10:21:46Z</time>
      </trkpt>
      <trkpt lat="44.39914" lon="4.37869">
        <ele>95.1</ele>
        <time>2024-02-29T10:21:53Z</time>
      </trkpt>
      <trkpt lat="44.39926" lon="4.37888">
        <ele>95</ele>
        <time>2024-02-29T10:22:00Z</time>
      </trkpt>
      <trkpt lat="44.3994" lon="4.37907">
        <ele>94.9</ele>
        <time>2024-02-29T10:22:07Z</time>
      </trkpt>
      <trkpt lat="44.39952" lon="4.37927">
        <ele>94.8</ele>
        <time>2024-02-29T10:22:14Z</time>
      </trkpt>
      <trkpt lat="44.39965" lon="4.37949">
        <ele>94.8</ele>
        <time>2024-02-29T10:22:21Z</time>
      </trkpt>
      <trkpt lat="44.39979" lon="4.37968">
        <ele>94.8</ele>
        <time>2024-02-29T10:22:28Z</time>
      </trkpt>
      <trkpt lat="44.39992" lon="4.37985">
        <ele>94.8</ele>
        <time>2024-02-29T10:22:34Z</time>
      </trkpt>
      <trkpt lat="44.40008" lon="4.38002">
        <ele>94.8</ele>
        <time>2024-02-29T10:22:41Z</time>
      </trkpt>
      <trkpt lat="44.40023" lon="4.38021">
        <ele>94.9</ele>
        <time>2024-02-29T10:22:49Z</time>
      </trkpt>
      <trkpt lat="44.40039" lon="4.38035">
        <ele>94.7</ele>
        <time>2024-02-29T10:22:56Z</time>
      </trkpt>
      <trkpt lat="44.40057" lon="4.38049">
        <ele>94.3</ele>
        <time>2024-02-29T10:23:03Z</time>
      </trkpt>
      <trkpt lat="44.40072" lon="4.38062">
        <ele>93.4</ele>
        <time>2024-02-29T10:23:09Z</time>
      </trkpt>
      <trkpt lat="44.40087" lon="4.38077">
        <ele>92.4</ele>
        <time>2024-02-29T10:23:15Z</time>
      </trkpt>
      <trkpt lat="44.40104" lon="4.38095">
        <ele>91.2</ele>
        <time>2024-02-29T10:23:22Z</time>
      </trkpt>
      <trkpt lat="44.40119" lon="4.38113">
        <ele>90.1</ele>
        <time>2024-02-29T10:23:28Z</time>
      </trkpt>
      <trkpt lat="44.40131" lon="4.38136">
        <ele>89.3</ele>
        <time>2024-02-29T10:23:34Z</time>
      </trkpt>
      <trkpt lat="44.4014" lon="4.38159">
        <ele>88.7</ele>
        <time>2024-02-29T10:23:40Z</time>
      </trkpt>
      <trkpt lat="44.40147" lon="4.38185">
        <ele>88.3</ele>
        <time>2024-02-29T10:23:47Z</time>
      </trkpt>
      <trkpt lat="44.40138" lon="4.38208">
        <ele>87.9</ele>
        <time>2024-02-29T10:23:53Z</time>
      </trkpt>
      <trkpt lat="44.40127" lon="4.38228">
        <ele>87.7</ele>
        <time>2024-02-29T10:23:59Z</time>
      </trkpt>
      <trkpt lat="44.40112" lon="4.38248">
        <ele>87.6</ele>
        <time>2024-02-29T10:24:06Z</time>
      </trkpt>
      <trkpt lat="44.40097" lon="4.38264">
        <ele>87.6</ele>
        <time>2024-02-29T10:24:13Z</time>
      </trkpt>
      <trkpt lat="44.40085" lon="4.38283">
        <ele>87.5</ele>
        <time>2024-02-29T10:24:18Z</time>
      </trkpt>
      <trkpt lat="44.40071" lon="4.38301">
        <ele>87.6</ele>
        <time>2024-02-29T10:24:26Z</time>
      </trkpt>
      <trkpt lat="44.4006" lon="4.38309">
        <ele>87.6</ele>
        <time>2024-02-29T10:24:31Z</time>
      </trkpt>
      <trkpt lat="44.40054" lon="4.38337">
        <ele>87.5</ele>
        <time>2024-02-29T10:24:39Z</time>
      </trkpt>
      <trkpt lat="44.40048" lon="4.38346">
        <ele>87.5</ele>
        <time>2024-02-29T10:24:44Z</time>
      </trkpt>
      <trkpt lat="44.40029" lon="4.38348">
        <ele>87.3</ele>
        <time>2024-02-29T10:24:53Z</time>
      </trkpt>
      <trkpt lat="44.4001" lon="4.38351">
        <ele>87.1</ele>
        <time>2024-02-29T10:25:00Z</time>
      </trkpt>
      <trkpt lat="44.39991" lon="4.38357">
        <ele>87</ele>
        <time>2024-02-29T10:25:08Z</time>
      </trkpt>
      <trkpt lat="44.39973" lon="4.38363">
        <ele>86.8</ele>
        <time>2024-02-29T10:25:14Z</time>
      </trkpt>
      <trkpt lat="44.39954" lon="4.38368">
        <ele>86.5</ele>
        <time>2024-02-29T10:25:21Z</time>
      </trkpt>
      <trkpt lat="44.39937" lon="4.38378">
        <ele>85.9</ele>
        <time>2024-02-29T10:25:29Z</time>
      </trkpt>
      <trkpt lat="44.39921" lon="4.3838">
        <ele>85.2</ele>
        <time>2024-02-29T10:25:35Z</time>
      </trkpt>
      <trkpt lat="44.39905" lon="4.38394">
        <ele>84.2</ele>
        <time>2024-02-29T10:25:41Z</time>
      </trkpt>
      <trkpt lat="44.39889" lon="4.38409">
        <ele>84</ele>
        <time>2024-02-29T10:25:48Z</time>
      </trkpt>
      <trkpt lat="44.3987" lon="4.38422">
        <ele>84.2</ele>
        <time>2024-02-29T10:25:55Z</time>
      </trkpt>
      <trkpt lat="44.39851" lon="4.38427">
        <ele>85.2</ele>
        <time>2024-02-29T10:26:03Z</time>
      </trkpt>
      <trkpt lat="44.39833" lon="4.38437">
        <ele>87.3</ele>
        <time>2024-02-29T10:26:11Z</time>
      </trkpt>
      <trkpt lat="44.3982" lon="4.38453">
        <ele>89.1</ele>
        <time>2024-02-29T10:26:26Z</time>
      </trkpt>
      <trkpt lat="44.39811" lon="4.38469">
        <ele>89.1</ele>
        <time>2024-02-29T10:29:23Z</time>
      </trkpt>
      <trkpt lat="44.39809" lon="4.3847">
        <ele>89.1</ele>
        <time>2024-02-29T10:29:24Z</time>
      </trkpt>
      <trkpt lat="44.39791" lon="4.38489">
        <ele>89</ele>
        <time>2024-02-29T10:29:30Z</time>
      </trkpt>
      <trkpt lat="44.39772" lon="4.38504">
        <ele>89</ele>
        <time>2024-02-29T10:29:35Z</time>
      </trkpt>
      <trkpt lat="44.39754" lon="4.38518">
        <ele>88.9</ele>
        <time>2024-02-29T10:29:39Z</time>
      </trkpt>
      <trkpt lat="44.39735" lon="4.38532">
        <ele>88.7</ele>
        <time>2024-02-29T10:29:42Z</time>
      </trkpt>
      <trkpt lat="44.39715" lon="4.38546">
        <ele>88.1</ele>
        <time>2024-02-29T10:29:47Z</time>
      </trkpt>
      <trkpt lat="44.39691" lon="4.38562">
        <ele>87.1</ele>
        <time>2024-02-29T10:29:51Z</time>
      </trkpt>
      <trkpt lat="44.39672" lon="4.38573">
        <ele>87</ele>
        <time>2024-02-29T10:29:56Z</time>
      </trkpt>
      <trkpt lat="44.39657" lon="4.38568">
        <ele>87.6</ele>
        <time>2024-02-29T10:29:59Z</time>
      </trkpt>
      <trkpt lat="44.39637" lon="4.38548">
        <ele>88.9</ele>
        <time>2024-02-29T10:30:03Z</time>
      </trkpt>
      <trkpt lat="44.3962" lon="4.38532">
        <ele>89.5</ele>
        <time>2024-02-29T10:30:08Z</time>
      </trkpt>
      <trkpt lat="44.39602" lon="4.38518">
        <ele>89.8</ele>
        <time>2024-02-29T10:30:12Z</time>
      </trkpt>
      <trkpt lat="44.39584" lon="4.38504">
        <ele>90.2</ele>
        <time>2024-02-29T10:30:15Z</time>
      </trkpt>
      <trkpt lat="44.39567" lon="4.3849">
        <ele>90.6</ele>
        <time>2024-02-29T10:30:20Z</time>
      </trkpt>
      <trkpt lat="44.39549" lon="4.38475">
        <ele>91</ele>
        <time>2024-02-29T10:30:24Z</time>
      </trkpt>
      <trkpt lat="44.3953" lon="4.38463">
        <ele>91.3</ele>
        <time>2024-02-29T10:30:28Z</time>
      </trkpt>
      <trkpt lat="44.39512" lon="4.38454">
        <ele>91.6</ele>
        <time>2024-02-29T10:30:32Z</time>
      </trkpt>
      <trkpt lat="44.39494" lon="4.38446">
        <ele>92</ele>
        <time>2024-02-29T10:30:36Z</time>
      </trkpt>
      <trkpt lat="44.39475" lon="4.38433">
        <ele>92.2</ele>
        <time>2024-02-29T10:30:40Z</time>
      </trkpt>
      <trkpt lat="44.39458" lon="4.3842">
        <ele>92.5</ele>
        <time>2024-02-29T10:30:44Z</time>
      </trkpt>
      <trkpt lat="44.3945" lon="4.38412">
        <ele>92.6</ele>
        <time>2024-02-29T10:30:45Z</time>
      </trkpt>
      <trkpt lat="44.39433" lon="4.38396">
        <ele>93.1</ele>
        <time>2024-02-29T10:30:50Z</time>
      </trkpt>
      <trkpt lat="44.39416" lon="4.38379">
        <ele>93.7</ele>
        <time>2024-02-29T10:30:54Z</time>
      </trkpt>
      <trkpt lat="44.39401" lon="4.38364">
        <ele>94.6</ele>
        <time>2024-02-29T10:30:58Z</time>
      </trkpt>
      <trkpt lat="44.39387" lon="4.38351">
        <ele>96</ele>
        <time>2024-02-29T10:31:02Z</time>
      </trkpt>
      <trkpt lat="44.39382" lon="4.38342">
        <ele>96.9</ele>
        <time>2024-02-29T10:31:04Z</time>
      </trkpt>
      <trkpt lat="44.39384" lon="4.38329">
        <ele>96.8</ele>
        <time>2024-02-29T10:31:06Z</time>
      </trkpt>
      <trkpt lat="44.39396" lon="4.38302">
        <ele>96</ele>
        <time>2024-02-29T10:31:10Z</time>
      </trkpt>
      <trkpt lat="44.39408" lon="4.38277">
        <ele>95.5</ele>
        <time>2024-02-29T10:31:14Z</time>
      </trkpt>
      <trkpt lat="44.39418" lon="4.38253">
        <ele>95.3</ele>
        <time>2024-02-29T10:31:18Z</time>
      </trkpt>
      <trkpt lat="44.39421" lon="4.3824">
        <ele>95.3</ele>
        <time>2024-02-29T10:31:19Z</time>
      </trkpt>
      <trkpt lat="44.39422" lon="4.38226">
        <ele>95.3</ele>
        <time>2024-02-29T10:31:22Z</time>
      </trkpt>
      <trkpt lat="44.39423" lon="4.38205">
        <ele>95.4</ele>
        <time>2024-02-29T10:31:25Z</time>
      </trkpt>
      <trkpt lat="44.39424" lon="4.38187">
        <ele>95.6</ele>
        <time>2024-02-29T10:31:27Z</time>
      </trkpt>
      <trkpt lat="44.39425" lon="4.38173">
        <ele>95.8</ele>
        <time>2024-02-29T10:31:31Z</time>
      </trkpt>
      <trkpt lat="44.3942" lon="4.38148">
        <ele>96.1</ele>
        <time>2024-02-29T10:31:41Z</time>
      </trkpt>
      <trkpt lat="44.39417" lon="4.38122">
        <ele>96.5</ele>
        <time>2024-02-29T10:31:52Z</time>
      </trkpt>
      <trkpt lat="44.39424" lon="4.38093">
        <ele>97.2</ele>
        <time>2024-02-29T10:32:04Z</time>
      </trkpt>
      <trkpt lat="44.39413" lon="4.3807">
        <ele>98.1</ele>
        <time>2024-02-29T10:32:12Z</time>
      </trkpt>
      <trkpt lat="44.39402" lon="4.38044">
        <ele>99.2</ele>
        <time>2024-02-29T10:32:21Z</time>
      </trkpt>
      <trkpt lat="44.394" lon="4.38038">
        <ele>99.3</ele>
        <time>2024-02-29T10:32:22Z</time>
      </trkpt>
      <trkpt lat="44.39386" lon="4.38017">
        <ele>99.5</ele>
        <time>2024-02-29T10:32:28Z</time>
      </trkpt>
      <trkpt lat="44.39386" lon="4.37987">
        <ele>98.3</ele>
        <time>2024-02-29T10:32:32Z</time>
      </trkpt>
      <trkpt lat="44.39388" lon="4.37962">
        <ele>97.7</ele>
        <time>2024-02-29T10:32:35Z</time>
      </trkpt>
      <trkpt lat="44.39392" lon="4.37937">
        <ele>97.2</ele>
        <time>2024-02-29T10:32:38Z</time>
      </trkpt>
      <trkpt lat="44.39396" lon="4.37931">
        <ele>97</ele>
        <time>2024-02-29T10:32:39Z</time>
      </trkpt>
      <trkpt lat="44.39406" lon="4.37922">
        <ele>96.7</ele>
        <time>2024-02-29T10:32:41Z</time>
      </trkpt>
      <trkpt lat="44.39417" lon="4.37917">
        <ele>96.6</ele>
        <time>2024-02-29T10:32:43Z</time>
      </trkpt>
      <trkpt lat="44.3944" lon="4.3791">
        <ele>96.6</ele>
        <time>2024-02-29T10:32:47Z</time>
      </trkpt>
      <trkpt lat="44.39461" lon="4.37904">
        <ele>96.8</ele>
        <time>2024-02-29T10:32:51Z</time>
      </trkpt>
      <trkpt lat="44.39482" lon="4.37898">
        <ele>97</ele>
        <time>2024-02-29T10:32:55Z</time>
      </trkpt>
      <trkpt lat="44.395" lon="4.37892">
        <ele>97.3</ele>
        <time>2024-02-29T10:32:59Z</time>
      </trkpt>
      <trkpt lat="44.39518" lon="4.37885">
        <ele>97.4</ele>
        <time>2024-02-29T10:33:03Z</time>
      </trkpt>
      <trkpt lat="44.39531" lon="4.3788">
        <ele>97.6</ele>
        <time>2024-02-29T10:33:06Z</time>
      </trkpt>
      <trkpt lat="44.39554" lon="4.37875">
        <ele>97.8</ele>
        <time>2024-02-29T10:33:10Z</time>
      </trkpt>
      <trkpt lat="44.39574" lon="4.37867">
        <ele>98</ele>
        <time>2024-02-29T10:33:15Z</time>
      </trkpt>
      <trkpt lat="44.39594" lon="4.37859">
        <ele>98.2</ele>
        <time>2024-02-29T10:33:18Z</time>
      </trkpt>
      <trkpt lat="44.39614" lon="4.3785">
        <ele>98.3</ele>
        <time>2024-02-29T10:33:23Z</time>
      </trkpt>
      <trkpt lat="44.39634" lon="4.37842">
        <ele>98.4</ele>
        <time>2024-02-29T10:33:27Z</time>
      </trkpt>
      <trkpt lat="44.39654" lon="4.37834">
        <ele>98.4</ele>
        <time>2024-02-29T10:33:30Z</time>
      </trkpt>
      <trkpt lat="44.39675" lon="4.37826">
        <ele>98.2</ele>
        <time>2024-02-29T10:33:34Z</time>
      </trkpt>
      <trkpt lat="44.39695" lon="4.37818">
        <ele>98.1</ele>
        <time>2024-02-29T10:33:39Z</time>
      </trkpt>
      <trkpt lat="44.39715" lon="4.37814">
        <ele>98</ele>
        <time>2024-02-29T10:33:43Z</time>
      </trkpt>
      <trkpt lat="44.39733" lon="4.37808">
        <ele>97.8</ele>
        <time>2024-02-29T10:33:47Z</time>
      </trkpt>
      <trkpt lat="44.39757" lon="4.378">
        <ele>97.5</ele>
        <time>2024-02-29T10:33:51Z</time>
      </trkpt>
      <trkpt lat="44.39778" lon="4.37793">
        <ele>97.2</ele>
        <time>2024-02-29T10:33:56Z</time>
      </trkpt>
      <trkpt lat="44.39802" lon="4.37785">
        <ele>97.2</ele>
        <time>2024-02-29T10:34:00Z</time>
      </trkpt>
      <trkpt lat="44.39811" lon="4.37782">
        <ele>97.2</ele>
        <time>2024-02-29T10:34:03Z</time>
      </trkpt>
      <trkpt lat="44.3982" lon="4.37785">
        <ele>96.9</ele>
        <time>2024-02-29T10:34:05Z</time>
      </trkpt>
      <trkpt lat="44.39837" lon="4.37801">
        <ele>96.4</ele>
        <time>2024-02-29T10:34:09Z</time>
      </trkpt>
      <trkpt lat="44.39856" lon="4.37816">
        <ele>96</ele>
        <time>2024-02-29T10:34:13Z</time>
      </trkpt>
      <trkpt lat="44.39874" lon="4.37829">
        <ele>95.6</ele>
        <time>2024-02-29T10:34:17Z</time>
      </trkpt>
      <trkpt lat="44.39892" lon="4.37843">
        <ele>95.3</ele>
        <time>2024-02-29T10:34:21Z</time>
      </trkpt>
      <trkpt lat="44.39904" lon="4.37856">
        <ele>95.2</ele>
        <time>2024-02-29T10:34:23Z</time>
      </trkpt>
      <trkpt lat="44.39917" lon="4.3787">
        <ele>95.1</ele>
        <time>2024-02-29T10:34:28Z</time>
      </trkpt>
      <trkpt lat="44.3993" lon="4.37891">
        <ele>95</ele>
        <time>2024-02-29T10:34:37Z</time>
      </trkpt>
      <trkpt lat="44.39943" lon="4.37911">
        <ele>94.9</ele>
        <time>2024-02-29T10:34:46Z</time>
      </trkpt>
      <trkpt lat="44.39955" lon="4.37933">
        <ele>94.8</ele>
        <time>2024-02-29T10:34:54Z</time>
      </trkpt>
      <trkpt lat="44.39967" lon="4.37953">
        <ele>94.8</ele>
        <time>2024-02-29T10:35:03Z</time>
      </trkpt>
      <trkpt lat="44.39981" lon="4.37976">
        <ele>94.8</ele>
        <time>2024-02-29T10:35:13Z</time>
      </trkpt>
      <trkpt lat="44.39998" lon="4.37993">
        <ele>94.8</ele>
        <time>2024-02-29T10:35:21Z</time>
      </trkpt>
      <trkpt lat="44.40001" lon="4.37996">
        <ele>94.8</ele>
        <time>2024-02-29T10:35:22Z</time>
      </trkpt>
      <trkpt lat="44.40017" lon="4.38013">
        <ele>94.9</ele>
        <time>2024-02-29T10:35:27Z</time>
      </trkpt>
      <trkpt lat="44.40035" lon="4.38029">
        <ele>94.8</ele>
        <time>2024-02-29T10:35:31Z</time>
      </trkpt>
      <trkpt lat="44.40053" lon="4.38045">
        <ele>94.4</ele>
        <time>2024-02-29T10:35:34Z</time>
      </trkpt>
      <trkpt lat="44.40072" lon="4.38061">
        <ele>93.4</ele>
        <time>2024-02-29T10:35:38Z</time>
      </trkpt>
      <trkpt lat="44.40091" lon="4.38078">
        <ele>92.2</ele>
        <time>2024-02-29T10:35:42Z</time>
      </trkpt>
      <trkpt lat="44.4011" lon="4.38096">
        <ele>90.9</ele>
        <time>2024-02-29T10:35:47Z</time>
      </trkpt>
      <trkpt lat="44.40119" lon="4.38106">
        <ele>90.3</ele>
        <time>2024-02-29T10:35:48Z</time>
      </trkpt>
      <trkpt lat="44.40133" lon="4.38132">
        <ele>89.4</ele>
        <time>2024-02-29T10:35:53Z</time>
      </trkpt>
      <trkpt lat="44.40147" lon="4.38163">
        <ele>88.6</ele>
        <time>2024-02-29T10:35:57Z</time>
      </trkpt>
      <trkpt lat="44.4015" lon="4.38176">
        <ele>88.4</ele>
        <time>2024-02-29T10:36:00Z</time>
      </trkpt>
      <trkpt lat="44.40146" lon="4.38197">
        <ele>88.1</ele>
        <time>2024-02-29T10:36:03Z</time>
      </trkpt>
      <trkpt lat="44.40134" lon="4.38224">
        <ele>87.7</ele>
        <time>2024-02-29T10:36:07Z</time>
      </trkpt>
      <trkpt lat="44.40126" lon="4.38236">
        <ele>87.7</ele>
        <time>2024-02-29T10:36:08Z</time>
      </trkpt>
      <trkpt lat="44.40113" lon="4.38251">
        <ele>87.6</ele>
        <time>2024-02-29T10:36:12Z</time>
      </trkpt>
      <trkpt lat="44.40093" lon="4.38273">
        <ele>87.6</ele>
        <time>2024-02-29T10:36:16Z</time>
      </trkpt>
      <trkpt lat="44.40082" lon="4.38288">
        <ele>87.5</ele>
        <time>2024-02-29T10:36:20Z</time>
      </trkpt>
      <trkpt lat="44.40075" lon="4.38298">
        <ele>87.5</ele>
        <time>2024-02-29T10:36:21Z</time>
      </trkpt>
      <trkpt lat="44.4006" lon="4.38315">
        <ele>87.6</ele>
        <time>2024-02-29T10:36:26Z</time>
      </trkpt>
      <trkpt lat="44.40055" lon="4.38333">
        <ele>87.6</ele>
        <time>2024-02-29T10:36:29Z</time>
      </trkpt>
      <trkpt lat="44.4005" lon="4.38345">
        <ele>87.5</ele>
        <time>2024-02-29T10:36:31Z</time>
      </trkpt>
      <trkpt lat="44.40039" lon="4.38353">
        <ele>87.4</ele>
        <time>2024-02-29T10:36:34Z</time>
      </trkpt>
      <trkpt lat="44.40021" lon="4.38352">
        <ele>87.2</ele>
        <time>2024-02-29T10:36:37Z</time>
      </trkpt>
      <trkpt lat="44.40013" lon="4.38353">
        <ele>87.2</ele>
        <time>2024-02-29T10:36:40Z</time>
      </trkpt>
      <trkpt lat="44.39997" lon="4.38358">
        <ele>87</ele>
        <time>2024-02-29T10:36:44Z</time>
      </trkpt>
      <trkpt lat="44.39975" lon="4.38364">
        <ele>86.8</ele>
        <time>2024-02-29T10:36:49Z</time>
      </trkpt>
      <trkpt lat="44.39965" lon="4.38368">
        <ele>86.7</ele>
        <time>2024-02-29T10:36:51Z</time>
      </trkpt>
      <trkpt lat="44.39946" lon="4.3837">
        <ele>86.3</ele>
        <time>2024-02-29T10:36:55Z</time>
      </trkpt>
      <trkpt lat="44.39942" lon="4.38372">
        <ele>86.2</ele>
        <time>2024-02-29T10:36:56Z</time>
      </trkpt>
      <trkpt lat="44.39934" lon="4.38377">
        <ele>85.8</ele>
        <time>2024-02-29T10:36:58Z</time>
      </trkpt>
      <trkpt lat="44.39924" lon="4.38378">
        <ele>85.3</ele>
        <time>2024-02-29T10:37:00Z</time>
      </trkpt>
      <trkpt lat="44.39911" lon="4.38389">
        <ele>84.5</ele>
        <time>2024-02-29T10:37:03Z</time>
      </trkpt>
      <trkpt lat="44.39895" lon="4.38401">
        <ele>84.1</ele>
        <time>2024-02-29T10:37:07Z</time>
      </trkpt>
      <trkpt lat="44.39879" lon="4.38415">
        <ele>84.1</ele>
        <time>2024-02-29T10:37:11Z</time>
      </trkpt>
      <trkpt lat="44.39871" lon="4.38421">
        <ele>84.2</ele>
        <time>2024-02-29T10:37:13Z</time>
      </trkpt>
      <trkpt lat="44.39852" lon="4.38427">
        <ele>85</ele>
        <time>2024-02-29T10:37:17Z</time>
      </trkpt>
      <trkpt lat="44.39841" lon="4.3843">
        <ele>86.1</ele>
        <time>2024-02-29T10:37:21Z</time>
      </trkpt>
      <trkpt lat="44.39832" lon="4.38436">
        <ele>87.4</ele>
        <time>2024-02-29T10:37:23Z</time>
      </trkpt>
      <trkpt lat="44.39827" lon="4.38441">
        <ele>88.1</ele>
        <time>2024-02-29T10:37:26Z</time>
      </trkpt>
      <trkpt lat="44.39816" lon="4.38452">
        <ele>89.1</ele>
        <time>2024-02-29T10:37:34Z</time>
      </trkpt>
      <trkpt lat="44.39814" lon="4.38454">
        <ele>89.1</ele>
        <time>2024-02-29T10:37:38Z</time>
      </trkpt>
      <trkpt lat="44.39803" lon="4.38473">
        <ele>89</ele>
        <time>2024-02-29T10:37:46Z</time>
      </trkpt>
      <trkpt lat="44.39788" lon="4.38487">
        <ele>89</ele>
        <time>2024-02-29T10:37:53Z</time>
      </trkpt>
      <trkpt lat="44.3977" lon="4.385">
        <ele>89</ele>
        <time>2024-02-29T10:38:00Z</time>
      </trkpt>
      <trkpt lat="44.39754" lon="4.38515">
        <ele>88.9</ele>
        <time>2024-02-29T10:38:07Z</time>
      </trkpt>
      <trkpt lat="44.39737" lon="4.38529">
        <ele>88.7</ele>
        <time>2024-02-29T10:38:14Z</time>
      </trkpt>
      <trkpt lat="44.39721" lon="4.3854">
        <ele>88.3</ele>
        <time>2024-02-29T10:38:20Z</time>
      </trkpt>
      <trkpt lat="44.39715" lon="4.38543">
        <ele>88.1</ele>
        <time>2024-02-29T10:38:22Z</time>
      </trkpt>
      <trkpt lat="44.39694" lon="4.38557">
        <ele>87.2</ele>
        <time>2024-02-29T10:38:27Z</time>
      </trkpt>
      <trkpt lat="44.39677" lon="4.38569">
        <ele>87</ele>
        <time>2024-02-29T10:38:31Z</time>
      </trkpt>
      <trkpt lat="44.39668" lon="4.3857">
        <ele>87.1</ele>
        <time>2024-02-29T10:38:32Z</time>
      </trkpt>
      <trkpt lat="44.39662" lon="4.38568">
        <ele>87.4</ele>
        <time>2024-02-29T10:38:34Z</time>
      </trkpt>
      <trkpt lat="44.39645" lon="4.38553">
        <ele>88.5</ele>
        <time>2024-02-29T10:38:38Z</time>
      </trkpt>
      <trkpt lat="44.39628" lon="4.38537">
        <ele>89.3</ele>
        <time>2024-02-29T10:38:42Z</time>
      </trkpt>
      <trkpt lat="44.39611" lon="4.38522">
        <ele>89.7</ele>
        <time>2024-02-29T10:38:46Z</time>
      </trkpt>
      <trkpt lat="44.39592" lon="4.38507">
        <ele>90</ele>
        <time>2024-02-29T10:38:50Z</time>
      </trkpt>
      <trkpt lat="44.39575" lon="4.38492">
        <ele>90.4</ele>
        <time>2024-02-29T10:38:54Z</time>
      </trkpt>
      <trkpt lat="44.39557" lon="4.38478">
        <ele>90.8</ele>
        <time>2024-02-29T10:38:58Z</time>
      </trkpt>
      <trkpt lat="44.3954" lon="4.38464">
        <ele>91.2</ele>
        <time>2024-02-29T10:39:02Z</time>
      </trkpt>
      <trkpt lat="44.39523" lon="4.38453">
        <ele>91.5</ele>
        <time>2024-02-29T10:39:06Z</time>
      </trkpt>
      <trkpt lat="44.39504" lon="4.38445">
        <ele>91.8</ele>
        <time>2024-02-29T10:39:10Z</time>
      </trkpt>
      <trkpt lat="44.39487" lon="4.38436">
        <ele>92.1</ele>
        <time>2024-02-29T10:39:14Z</time>
      </trkpt>
      <trkpt lat="44.3947" lon="4.38425">
        <ele>92.3</ele>
        <time>2024-02-29T10:39:18Z</time>
      </trkpt>
      <trkpt lat="44.39462" lon="4.38418">
        <ele>92.5</ele>
        <time>2024-02-29T10:39:20Z</time>
      </trkpt>
      <trkpt lat="44.39446" lon="4.38402">
        <ele>92.8</ele>
        <time>2024-02-29T10:39:24Z</time>
      </trkpt>
      <trkpt lat="44.39429" lon="4.38386">
        <ele>93.3</ele>
        <time>2024-02-29T10:39:28Z</time>
      </trkpt>
      <trkpt lat="44.39413" lon="4.38371">
        <ele>94</ele>
        <time>2024-02-29T10:39:32Z</time>
      </trkpt>
      <trkpt lat="44.39398" lon="4.38356">
        <ele>95.2</ele>
        <time>2024-02-29T10:39:36Z</time>
      </trkpt>
      <trkpt lat="44.39386" lon="4.3834">
        <ele>96.9</ele>
        <time>2024-02-29T10:39:39Z</time>
      </trkpt>
      <trkpt lat="44.39385" lon="4.38329">
        <ele>96.7</ele>
        <time>2024-02-29T10:39:41Z</time>
      </trkpt>
      <trkpt lat="44.39388" lon="4.38317">
        <ele>96.4</ele>
        <time>2024-02-29T10:39:44Z</time>
      </trkpt>
      <trkpt lat="44.39393" lon="4.38304">
        <ele>96.1</ele>
        <time>2024-02-29T10:39:46Z</time>
      </trkpt>
      <trkpt lat="44.39399" lon="4.38292">
        <ele>95.8</ele>
        <time>2024-02-29T10:39:48Z</time>
      </trkpt>
      <trkpt lat="44.39411" lon="4.38268">
        <ele>95.4</ele>
        <time>2024-02-29T10:39:52Z</time>
      </trkpt>
      <trkpt lat="44.39417" lon="4.38244">
        <ele>95.3</ele>
        <time>2024-02-29T10:39:56Z</time>
      </trkpt>
      <trkpt lat="44.39418" lon="4.38217">
        <ele>95.3</ele>
        <time>2024-02-29T10:40:00Z</time>
      </trkpt>
      <trkpt lat="44.39418" lon="4.38187">
        <ele>95.6</ele>
        <time>2024-02-29T10:40:05Z</time>
      </trkpt>
      <trkpt lat="44.3942" lon="4.38169">
        <ele>95.9</ele>
        <time>2024-02-29T10:40:08Z</time>
      </trkpt>
      <trkpt lat="44.39422" lon="4.38152">
        <ele>96.1</ele>
        <time>2024-02-29T10:40:11Z</time>
      </trkpt>
      <trkpt lat="44.39424" lon="4.38135">
        <ele>96.4</ele>
        <time>2024-02-29T10:40:13Z</time>
      </trkpt>
      <trkpt lat="44.39424" lon="4.38102">
        <ele>97.1</ele>
        <time>2024-02-29T10:40:19Z</time>
      </trkpt>
      <trkpt lat="44.39423" lon="4.38096">
        <ele>97.2</ele>
        <time>2024-02-29T10:40:20Z</time>
      </trkpt>
      <trkpt lat="44.39412" lon="4.38069">
        <ele>98.1</ele>
        <time>2024-02-29T10:40:24Z</time>
      </trkpt>
      <trkpt lat="44.39406" lon="4.38056">
        <ele>98.8</ele>
        <time>2024-02-29T10:40:28Z</time>
      </trkpt>
      <trkpt lat="44.39403" lon="4.38051">
        <ele>99</ele>
        <time>2024-02-29T10:40:30Z</time>
      </trkpt>
      <trkpt lat="44.39389" lon="4.38032">
        <ele>99.5</ele>
        <time>2024-02-29T10:40:39Z</time>
      </trkpt>
      <trkpt lat="44.39384" lon="4.38009">
        <ele>99.1</ele>
        <time>2024-02-29T10:40:46Z</time>
      </trkpt>
      <trkpt lat="44.39388" lon="4.37982">
        <ele>98.2</ele>
        <time>2024-02-29T10:40:54Z</time>
      </trkpt>
      <trkpt lat="44.39393" lon="4.37954">
        <ele>97.5</ele>
        <time>2024-02-29T10:41:00Z</time>
      </trkpt>
      <trkpt lat="44.39403" lon="4.37933">
        <ele>96.9</ele>
        <time>2024-02-29T10:41:07Z</time>
      </trkpt>
      <trkpt lat="44.3942" lon="4.37921">
        <ele>96.6</ele>
        <time>2024-02-29T10:41:13Z</time>
      </trkpt>
      <trkpt lat="44.39444" lon="4.37914">
        <ele>96.6</ele>
        <time>2024-02-29T10:41:21Z</time>
      </trkpt>
      <trkpt lat="44.39444" lon="4.37914">
        <ele>96.6</ele>
        <time>2024-02-29T10:41:22Z</time>
      </trkpt>
      <trkpt lat="44.39463" lon="4.37906">
        <ele>96.8</ele>
        <time>2024-02-29T10:41:27Z</time>
      </trkpt>
      <trkpt lat="44.39482" lon="4.379">
        <ele>97</ele>
        <time>2024-02-29T10:41:31Z</time>
      </trkpt>
      <trkpt lat="44.39501" lon="4.37891">
        <ele>97.3</ele>
        <time>2024-02-29T10:41:34Z</time>
      </trkpt>
      <trkpt lat="44.39521" lon="4.37884">
        <ele>97.5</ele>
        <time>2024-02-29T10:41:38Z</time>
      </trkpt>
      <trkpt lat="44.39543" lon="4.37881">
        <ele>97.7</ele>
        <time>2024-02-29T10:41:44Z</time>
      </trkpt>
      <trkpt lat="44.39554" lon="4.37876">
        <ele>97.8</ele>
        <time>2024-02-29T10:41:46Z</time>
      </trkpt>
      <trkpt lat="44.39573" lon="4.37869">
        <ele>98</ele>
        <time>2024-02-29T10:41:50Z</time>
      </trkpt>
      <trkpt lat="44.39593" lon="4.37861">
        <ele>98.2</ele>
        <time>2024-02-29T10:41:54Z</time>
      </trkpt>
      <trkpt lat="44.39613" lon="4.37855">
        <ele>98.3</ele>
        <time>2024-02-29T10:41:57Z</time>
      </trkpt>
      <trkpt lat="44.39633" lon="4.37847">
        <ele>98.4</ele>
        <time>2024-02-29T10:42:02Z</time>
      </trkpt>
      <trkpt lat="44.39654" lon="4.37839">
        <ele>98.4</ele>
        <time>2024-02-29T10:42:06Z</time>
      </trkpt>
      <trkpt lat="44.39675" lon="4.37829">
        <ele>98.3</ele>
        <time>2024-02-29T10:42:10Z</time>
      </trkpt>
      <trkpt lat="44.39695" lon="4.37822">
        <ele>98.1</ele>
        <time>2024-02-29T10:42:14Z</time>
      </trkpt>
      <trkpt lat="44.39715" lon="4.37816">
        <ele>98</ele>
        <time>2024-02-29T10:42:18Z</time>
      </trkpt>
      <trkpt lat="44.39734" lon="4.3781">
        <ele>97.8</ele>
        <time>2024-02-29T10:42:22Z</time>
      </trkpt>
      <trkpt lat="44.39755" lon="4.37803">
        <ele>97.5</ele>
        <time>2024-02-29T10:42:26Z</time>
      </trkpt>
      <trkpt lat="44.39774" lon="4.37795">
        <ele>97.3</ele>
        <time>2024-02-29T10:42:30Z</time>
      </trkpt>
      <trkpt lat="44.39794" lon="4.37788">
        <ele>97.2</ele>
        <time>2024-02-29T10:42:34Z</time>
      </trkpt>
      <trkpt lat="44.39814" lon="4.37783">
        <ele>97.1</ele>
        <time>2024-02-29T10:42:38Z</time>
      </trkpt>
      <trkpt lat="44.39823" lon="4.3779">
        <ele>96.9</ele>
        <time>2024-02-29T10:42:40Z</time>
      </trkpt>
      <trkpt lat="44.3984" lon="4.37806">
        <ele>96.3</ele>
        <time>2024-02-29T10:42:44Z</time>
      </trkpt>
      <trkpt lat="44.39857" lon="4.3782">
        <ele>95.9</ele>
        <time>2024-02-29T10:42:48Z</time>
      </trkpt>
      <trkpt lat="44.39874" lon="4.37833">
        <ele>95.6</ele>
        <time>2024-02-29T10:42:52Z</time>
      </trkpt>
      <trkpt lat="44.39891" lon="4.37847">
        <ele>95.3</ele>
        <time>2024-02-29T10:42:56Z</time>
      </trkpt>
      <trkpt lat="44.39908" lon="4.37864">
        <ele>95.1</ele>
        <time>2024-02-29T10:43:00Z</time>
      </trkpt>
      <trkpt lat="44.39924" lon="4.37882">
        <ele>95</ele>
        <time>2024-02-29T10:43:04Z</time>
      </trkpt>
      <trkpt lat="44.39939" lon="4.37902">
        <ele>94.9</ele>
        <time>2024-02-29T10:43:08Z</time>
      </trkpt>
      <trkpt lat="44.39953" lon="4.37922">
        <ele>94.8</ele>
        <time>2024-02-29T10:43:12Z</time>
      </trkpt>
      <trkpt lat="44.39967" lon="4.37943">
        <ele>94.8</ele>
        <time>2024-02-29T10:43:16Z</time>
      </trkpt>
      <trkpt lat="44.39977" lon="4.37958">
        <ele>94.8</ele>
        <time>2024-02-29T10:43:19Z</time>
      </trkpt>
      <trkpt lat="44.39991" lon="4.37978">
        <ele>94.8</ele>
        <time>2024-02-29T10:43:23Z</time>
      </trkpt>
      <trkpt lat="44.40007" lon="4.37999">
        <ele>94.8</ele>
        <time>2024-02-29T10:43:28Z</time>
      </trkpt>
      <trkpt lat="44.40021" lon="4.38017">
        <ele>94.9</ele>
        <time>2024-02-29T10:43:38Z</time>
      </trkpt>
      <trkpt lat="44.40037" lon="4.38032">
        <ele>94.8</ele>
        <time>2024-02-29T10:43:45Z</time>
      </trkpt>
      <trkpt lat="44.40055" lon="4.38048">
        <ele>94.4</ele>
        <time>2024-02-29T10:43:53Z</time>
      </trkpt>
      <trkpt lat="44.40069" lon="4.38063">
        <ele>93.5</ele>
        <time>2024-02-29T10:44:01Z</time>
      </trkpt>
      <trkpt lat="44.40086" lon="4.38078">
        <ele>92.4</ele>
        <time>2024-02-29T10:44:08Z</time>
      </trkpt>
      <trkpt lat="44.40101" lon="4.38092">
        <ele>91.3</ele>
        <time>2024-02-29T10:44:14Z</time>
      </trkpt>
      <trkpt lat="44.40118" lon="4.38117">
        <ele>90</ele>
        <time>2024-02-29T10:44:22Z</time>
      </trkpt>
      <trkpt lat="44.40122" lon="4.38126">
        <ele>89.7</ele>
        <time>2024-02-29T10:44:24Z</time>
      </trkpt>
      <trkpt lat="44.40135" lon="4.38148">
        <ele>88.9</ele>
        <time>2024-02-29T10:44:27Z</time>
      </trkpt>
      <trkpt lat="44.40146" lon="4.38173">
        <ele>88.4</ele>
        <time>2024-02-29T10:44:32Z</time>
      </trkpt>
      <trkpt lat="44.40145" lon="4.38187">
        <ele>88.3</ele>
        <time>2024-02-29T10:44:34Z</time>
      </trkpt>
      <trkpt lat="44.40136" lon="4.38216">
        <ele>87.8</ele>
        <time>2024-02-29T10:44:38Z</time>
      </trkpt>
      <trkpt lat="44.40123" lon="4.38239">
        <ele>87.7</ele>
        <time>2024-02-29T10:44:42Z</time>
      </trkpt>
      <trkpt lat="44.40119" lon="4.38244">
        <ele>87.6</ele>
        <time>2024-02-29T10:44:43Z</time>
      </trkpt>
      <trkpt lat="44.40103" lon="4.3826">
        <ele>87.6</ele>
        <time>2024-02-29T10:44:47Z</time>
      </trkpt>
      <trkpt lat="44.40088" lon="4.3828">
        <ele>87.5</ele>
        <time>2024-02-29T10:44:51Z</time>
      </trkpt>
      <trkpt lat="44.40077" lon="4.38296">
        <ele>87.5</ele>
        <time>2024-02-29T10:44:54Z</time>
      </trkpt>
      <trkpt lat="44.4006" lon="4.38312">
        <ele>87.6</ele>
        <time>2024-02-29T10:44:58Z</time>
      </trkpt>
      <trkpt lat="44.40055" lon="4.38322">
        <ele>87.6</ele>
        <time>2024-02-29T10:45:00Z</time>
      </trkpt>
      <trkpt lat="44.40051" lon="4.38334">
        <ele>87.6</ele>
        <time>2024-02-29T10:45:02Z</time>
      </trkpt>
      <trkpt lat="44.40047" lon="4.38345">
        <ele>87.5</ele>
        <time>2024-02-29T10:45:04Z</time>
      </trkpt>
      <trkpt lat="44.40039" lon="4.38352">
        <ele>87.4</ele>
        <time>2024-02-29T10:45:06Z</time>
      </trkpt>
      <trkpt lat="44.40028" lon="4.38353">
        <ele>87.3</ele>
        <time>2024-02-29T10:45:09Z</time>
      </trkpt>
      <trkpt lat="44.40012" lon="4.38354">
        <ele>87.2</ele>
        <time>2024-02-29T10:45:13Z</time>
      </trkpt>
      <trkpt lat="44.40001" lon="4.38361">
        <ele>87</ele>
        <time>2024-02-29T10:45:16Z</time>
      </trkpt>
      <trkpt lat="44.3998" lon="4.38365">
        <ele>86.9</ele>
        <time>2024-02-29T10:45:21Z</time>
      </trkpt>
      <trkpt lat="44.39961" lon="4.38372">
        <ele>86.6</ele>
        <time>2024-02-29T10:45:25Z</time>
      </trkpt>
      <trkpt lat="44.39953" lon="4.38373">
        <ele>86.4</ele>
        <time>2024-02-29T10:45:26Z</time>
      </trkpt>
      <trkpt lat="44.39949" lon="4.38373">
        <ele>86.4</ele>
        <time>2024-02-29T10:45:28Z</time>
      </trkpt>
      <trkpt lat="44.39935" lon="4.38378">
        <ele>85.8</ele>
        <time>2024-02-29T10:45:31Z</time>
      </trkpt>
      <trkpt lat="44.39926" lon="4.38377">
        <ele>85.3</ele>
        <time>2024-02-29T10:45:33Z</time>
      </trkpt>
      <trkpt lat="44.39913" lon="4.38386">
        <ele>84.6</ele>
        <time>2024-02-29T10:45:36Z</time>
      </trkpt>
      <trkpt lat="44.39898" lon="4.38399">
        <ele>84.1</ele>
        <time>2024-02-29T10:45:40Z</time>
      </trkpt>
      <trkpt lat="44.39881" lon="4.38413">
        <ele>84.1</ele>
        <time>2024-02-29T10:45:44Z</time>
      </trkpt>
      <trkpt lat="44.39877" lon="4.38416">
        <ele>84.1</ele>
        <time>2024-02-29T10:45:45Z</time>
      </trkpt>
      <trkpt lat="44.39856" lon="4.38424">
        <ele>84.8</ele>
        <time>2024-02-29T10:45:50Z</time>
      </trkpt>
      <trkpt lat="44.39848" lon="4.38426">
        <ele>85.3</ele>
        <time>2024-02-29T10:45:52Z</time>
      </trkpt>
      <trkpt lat="44.39838" lon="4.3843">
        <ele>86.4</ele>
        <time>2024-02-29T10:45:55Z</time>
      </trkpt>
      <trkpt lat="44.39833" lon="4.38435">
        <ele>87.2</ele>
        <time>2024-02-29T10:45:57Z</time>
      </trkpt>
      <trkpt lat="44.39828" lon="4.3844">
        <ele>88</ele>
        <time>2024-02-29T10:45:59Z</time>
      </trkpt>
      <trkpt lat="44.39811" lon="4.38461">
        <ele>89.1</ele>
        <time>2024-02-29T10:46:05Z</time>
      </trkpt>
      <trkpt lat="44.39807" lon="4.38464">
        <ele>89.1</ele>
        <time>2024-02-29T10:46:06Z</time>
      </trkpt>
      <trkpt lat="44.39789" lon="4.38482">
        <ele>89</ele>
        <time>2024-02-29T10:46:11Z</time>
      </trkpt>
      <trkpt lat="44.39773" lon="4.38498">
        <ele>89</ele>
        <time>2024-02-29T10:46:15Z</time>
      </trkpt>
      <trkpt lat="44.39756" lon="4.38512">
        <ele>88.9</ele>
        <time>2024-02-29T10:46:18Z</time>
      </trkpt>
      <trkpt lat="44.39739" lon="4.38525">
        <ele>88.7</ele>
        <time>2024-02-29T10:46:22Z</time>
      </trkpt>
      <trkpt lat="44.39734" lon="4.38528">
        <ele>88.7</ele>
        <time>2024-02-29T10:46:24Z</time>
      </trkpt>
      <trkpt lat="44.39719" lon="4.3854">
        <ele>88.3</ele>
        <time>2024-02-29T10:46:28Z</time>
      </trkpt>
      <trkpt lat="44.39701" lon="4.38552">
        <ele>87.5</ele>
        <time>2024-02-29T10:46:34Z</time>
      </trkpt>
      <trkpt lat="44.39684" lon="4.38563">
        <ele>87</ele>
        <time>2024-02-29T10:46:43Z</time>
      </trkpt>
      <trkpt lat="44.39665" lon="4.38566">
        <ele>87.3</ele>
        <time>2024-02-29T10:46:51Z</time>
      </trkpt>
      <trkpt lat="44.39648" lon="4.38554">
        <ele>88.3</ele>
        <time>2024-02-29T10:46:59Z</time>
      </trkpt>
      <trkpt lat="44.39632" lon="4.3854">
        <ele>89.2</ele>
        <time>2024-02-29T10:47:06Z</time>
      </trkpt>
      <trkpt lat="44.39614" lon="4.38524">
        <ele>89.6</ele>
        <time>2024-02-29T10:47:13Z</time>
      </trkpt>
      <trkpt lat="44.39597" lon="4.3851">
        <ele>89.9</ele>
        <time>2024-02-29T10:47:20Z</time>
      </trkpt>
      <trkpt lat="44.39588" lon="4.38502">
        <ele>90.1</ele>
        <time>2024-02-29T10:47:22Z</time>
      </trkpt>
      <trkpt lat="44.39568" lon="4.38487">
        <ele>90.6</ele>
        <time>2024-02-29T10:47:28Z</time>
      </trkpt>
      <trkpt lat="44.3955" lon="4.38472">
        <ele>91</ele>
        <time>2024-02-29T10:47:32Z</time>
      </trkpt>
      <trkpt lat="44.39532" lon="4.3846">
        <ele>91.3</ele>
        <time>2024-02-29T10:47:36Z</time>
      </trkpt>
      <trkpt lat="44.39509" lon="4.38449">
        <ele>91.7</ele>
        <time>2024-02-29T10:47:40Z</time>
      </trkpt>
      <trkpt lat="44.3949" lon="4.38439">
        <ele>92</ele>
        <time>2024-02-29T10:47:45Z</time>
      </trkpt>
      <trkpt lat="44.39471" lon="4.38428">
        <ele>92.3</ele>
        <time>2024-02-29T10:47:49Z</time>
      </trkpt>
      <trkpt lat="44.39467" lon="4.38425">
        <ele>92.4</ele>
        <time>2024-02-29T10:47:50Z</time>
      </trkpt>
      <trkpt lat="44.39449" lon="4.38411">
        <ele>92.7</ele>
        <time>2024-02-29T10:47:54Z</time>
      </trkpt>
      <trkpt lat="44.39433" lon="4.38394">
        <ele>93.1</ele>
        <time>2024-02-29T10:47:58Z</time>
      </trkpt>
      <trkpt lat="44.39417" lon="4.38378">
        <ele>93.7</ele>
        <time>2024-02-29T10:48:02Z</time>
      </trkpt>
      <trkpt lat="44.39402" lon="4.38363">
        <ele>94.8</ele>
        <time>2024-02-29T10:48:06Z</time>
      </trkpt>
      <trkpt lat="44.39387" lon="4.38345">
        <ele>96.9</ele>
        <time>2024-02-29T10:48:11Z</time>
      </trkpt>
      <trkpt lat="44.39385" lon="4.38333">
        <ele>96.8</ele>
        <time>2024-02-29T10:48:13Z</time>
      </trkpt>
      <trkpt lat="44.39388" lon="4.3832">
        <ele>96.4</ele>
        <time>2024-02-29T10:48:15Z</time>
      </trkpt>
      <trkpt lat="44.39396" lon="4.38294">
        <ele>95.8</ele>
        <time>2024-02-29T10:48:19Z</time>
      </trkpt>
      <trkpt lat="44.39404" lon="4.38276">
        <ele>95.5</ele>
        <time>2024-02-29T10:48:22Z</time>
      </trkpt>
      <trkpt lat="44.39414" lon="4.38254">
        <ele>95.3</ele>
        <time>2024-02-29T10:48:26Z</time>
      </trkpt>
      <trkpt lat="44.39416" lon="4.38242">
        <ele>95.3</ele>
        <time>2024-02-29T10:48:28Z</time>
      </trkpt>
      <trkpt lat="44.39417" lon="4.38221">
        <ele>95.3</ele>
        <time>2024-02-29T10:48:31Z</time>
      </trkpt>
      <trkpt lat="44.39417" lon="4.38207">
        <ele>95.4</ele>
        <time>2024-02-29T10:48:33Z</time>
      </trkpt>
      <trkpt lat="44.39417" lon="4.38194">
        <ele>95.5</ele>
        <time>2024-02-29T10:48:35Z</time>
      </trkpt>
      <trkpt lat="44.39419" lon="4.38165">
        <ele>95.9</ele>
        <time>2024-02-29T10:48:40Z</time>
      </trkpt>
      <trkpt lat="44.39424" lon="4.38138">
        <ele>96.3</ele>
        <time>2024-02-29T10:48:45Z</time>
      </trkpt>
      <trkpt lat="44.39424" lon="4.38132">
        <ele>96.4</ele>
        <time>2024-02-29T10:48:46Z</time>
      </trkpt>
      <trkpt lat="44.39422" lon="4.38101">
        <ele>97.1</ele>
        <time>2024-02-29T10:48:51Z</time>
      </trkpt>
      <trkpt lat="44.3942" lon="4.3809">
        <ele>97.4</ele>
        <time>2024-02-29T10:48:53Z</time>
      </trkpt>
      <trkpt lat="44.39413" lon="4.38066">
        <ele>98.2</ele>
        <time>2024-02-29T10:48:57Z</time>
      </trkpt>
      <trkpt lat="44.39408" lon="4.38056">
        <ele>98.8</ele>
        <time>2024-02-29T10:48:59Z</time>
      </trkpt>
      <trkpt lat="44.39392" lon="4.38035">
        <ele>99.5</ele>
        <time>2024-02-29T10:49:03Z</time>
      </trkpt>
      <trkpt lat="44.39385" lon="4.38025">
        <ele>99.5</ele>
        <time>2024-02-29T10:49:06Z</time>
      </trkpt>
      <trkpt lat="44.39383" lon="4.38005">
        <ele>99</ele>
        <time>2024-02-29T10:49:09Z</time>
      </trkpt>
      <trkpt lat="44.39387" lon="4.37975">
        <ele>98</ele>
        <time>2024-02-29T10:49:13Z</time>
      </trkpt>
      <trkpt lat="44.39392" lon="4.37945">
        <ele>97.3</ele>
        <time>2024-02-29T10:49:17Z</time>
      </trkpt>
      <trkpt lat="44.39395" lon="4.37938">
        <ele>97.1</ele>
        <time>2024-02-29T10:49:18Z</time>
      </trkpt>
      <trkpt lat="44.39405" lon="4.37927">
        <ele>96.8</ele>
        <time>2024-02-29T10:49:20Z</time>
      </trkpt>
      <trkpt lat="44.39419" lon="4.37917">
        <ele>96.6</ele>
        <time>2024-02-29T10:49:23Z</time>
      </trkpt>
      <trkpt lat="44.39438" lon="4.37911">
        <ele>96.6</ele>
        <time>2024-02-29T10:49:28Z</time>
      </trkpt>
      <trkpt lat="44.39456" lon="4.37905">
        <ele>96.7</ele>
        <time>2024-02-29T10:49:37Z</time>
      </trkpt>
      <trkpt lat="44.39477" lon="4.37901">
        <ele>96.9</ele>
        <time>2024-02-29T10:49:45Z</time>
      </trkpt>
      <trkpt lat="44.39496" lon="4.37893">
        <ele>97.3</ele>
        <time>2024-02-29T10:49:55Z</time>
      </trkpt>
      <trkpt lat="44.39514" lon="4.37885">
        <ele>97.4</ele>
        <time>2024-02-29T10:50:01Z</time>
      </trkpt>
      <trkpt lat="44.39532" lon="4.37882">
        <ele>97.6</ele>
        <time>2024-02-29T10:50:08Z</time>
      </trkpt>
      <trkpt lat="44.3955" lon="4.37876">
        <ele>97.8</ele>
        <time>2024-02-29T10:50:16Z</time>
      </trkpt>
      <trkpt lat="44.39572" lon="4.3787">
        <ele>98</ele>
        <time>2024-02-29T10:50:22Z</time>
      </trkpt>
      <trkpt lat="44.39593" lon="4.3786">
        <ele>98.2</ele>
        <time>2024-02-29T10:50:27Z</time>
      </trkpt>
      <trkpt lat="44.39613" lon="4.37851">
        <ele>98.3</ele>
        <time>2024-02-29T10:50:31Z</time>
      </trkpt>
      <trkpt lat="44.39634" lon="4.37843">
        <ele>98.4</ele>
        <time>2024-02-29T10:50:35Z</time>
      </trkpt>
      <trkpt lat="44.39656" lon="4.37834">
        <ele>98.4</ele>
        <time>2024-02-29T10:50:39Z</time>
      </trkpt>
      <trkpt lat="44.39677" lon="4.37826">
        <ele>98.2</ele>
        <time>2024-02-29T10:50:43Z</time>
      </trkpt>
      <trkpt lat="44.39698" lon="4.37818">
        <ele>98.1</ele>
        <time>2024-02-29T10:50:47Z</time>
      </trkpt>
      <trkpt lat="44.39719" lon="4.37811">
        <ele>98</ele>
        <time>2024-02-29T10:50:51Z</time>
      </trkpt>
      <trkpt lat="44.3974" lon="4.37804">
        <ele>97.7</ele>
        <time>2024-02-29T10:50:55Z</time>
      </trkpt>
      <trkpt lat="44.39761" lon="4.37797">
        <ele>97.4</ele>
        <time>2024-02-29T10:50:59Z</time>
      </trkpt>
      <trkpt lat="44.39782" lon="4.37791">
        <ele>97.2</ele>
        <time>2024-02-29T10:51:03Z</time>
      </trkpt>
      <trkpt lat="44.39801" lon="4.37784">
        <ele>97.2</ele>
        <time>2024-02-29T10:51:07Z</time>
      </trkpt>
      <trkpt lat="44.39811" lon="4.37782">
        <ele>97.1</ele>
        <time>2024-02-29T10:51:08Z</time>
      </trkpt>
      <trkpt lat="44.39816" lon="4.37784">
        <ele>97</ele>
        <time>2024-02-29T10:51:10Z</time>
      </trkpt>
      <trkpt lat="44.39835" lon="4.37798">
        <ele>96.5</ele>
        <time>2024-02-29T10:51:14Z</time>
      </trkpt>
      <trkpt lat="44.39852" lon="4.37814">
        <ele>96</ele>
        <time>2024-02-29T10:51:18Z</time>
      </trkpt>
      <trkpt lat="44.39871" lon="4.37828">
        <ele>95.6</ele>
        <time>2024-02-29T10:51:22Z</time>
      </trkpt>
      <trkpt lat="44.39888" lon="4.37842">
        <ele>95.4</ele>
        <time>2024-02-29T10:51:26Z</time>
      </trkpt>
      <trkpt lat="44.39905" lon="4.37858">
        <ele>95.2</ele>
        <time>2024-02-29T10:51:30Z</time>
      </trkpt>
      <trkpt lat="44.39921" lon="4.37878">
        <ele>95</ele>
        <time>2024-02-29T10:51:34Z</time>
      </trkpt>
      <trkpt lat="44.39936" lon="4.37899">
        <ele>94.9</ele>
        <time>2024-02-29T10:51:38Z</time>
      </trkpt>
      <trkpt lat="44.39951" lon="4.37919">
        <ele>94.9</ele>
        <time>2024-02-29T10:51:42Z</time>
      </trkpt>
      <trkpt lat="44.39964" lon="4.37941">
        <ele>94.8</ele>
        <time>2024-02-29T10:51:46Z</time>
      </trkpt>
      <trkpt lat="44.39978" lon="4.37962">
        <ele>94.8</ele>
        <time>2024-02-29T10:51:50Z</time>
      </trkpt>
      <trkpt lat="44.39985" lon="4.37971">
        <ele>94.8</ele>
        <time>2024-02-29T10:51:51Z</time>
      </trkpt>
      <trkpt lat="44.4" lon="4.37989">
        <ele>94.8</ele>
        <time>2024-02-29T10:51:56Z</time>
      </trkpt>
      <trkpt lat="44.40015" lon="4.38005">
        <ele>94.9</ele>
        <time>2024-02-29T10:52:00Z</time>
      </trkpt>
      <trkpt lat="44.4003" lon="4.3802">
        <ele>94.8</ele>
        <time>2024-02-29T10:52:04Z</time>
      </trkpt>
      <trkpt lat="44.40046" lon="4.38035">
        <ele>94.6</ele>
        <time>2024-02-29T10:52:08Z</time>
      </trkpt>
      <trkpt lat="44.40063" lon="4.38051">
        <ele>94.1</ele>
        <time>2024-02-29T10:52:12Z</time>
      </trkpt>
      <trkpt lat="44.40079" lon="4.38067">
        <ele>93</ele>
        <time>2024-02-29T10:52:16Z</time>
      </trkpt>
      <trkpt lat="44.40096" lon="4.38084">
        <ele>91.8</ele>
        <time>2024-02-29T10:52:20Z</time>
      </trkpt>
      <trkpt lat="44.40109" lon="4.38097">
        <ele>90.9</ele>
        <time>2024-02-29T10:52:23Z</time>
      </trkpt>
      <trkpt lat="44.40113" lon="4.38101">
        <ele>90.6</ele>
        <time>2024-02-29T10:52:24Z</time>
      </trkpt>
      <trkpt lat="44.40123" lon="4.38115">
        <ele>89.9</ele>
        <time>2024-02-29T10:52:27Z</time>
      </trkpt>
      <trkpt lat="44.40134" lon="4.38138">
        <ele>89.2</ele>
        <time>2024-02-29T10:52:34Z</time>
      </trkpt>
      <trkpt lat="44.40141" lon="4.38163">
        <ele>88.6</ele>
        <time>2024-02-29T10:52:45Z</time>
      </trkpt>
      <trkpt lat="44.40144" lon="4.3819">
        <ele>88.2</ele>
        <time>2024-02-29T10:52:54Z</time>
      </trkpt>
      <trkpt lat="44.40137" lon="4.38213">
        <ele>87.8</ele>
        <time>2024-02-29T10:53:01Z</time>
      </trkpt>
      <trkpt lat="44.40125" lon="4.38234">
        <ele>87.7</ele>
        <time>2024-02-29T10:53:08Z</time>
      </trkpt>
      <trkpt lat="44.40109" lon="4.38251">
        <ele>87.6</ele>
        <time>2024-02-29T10:53:15Z</time>
      </trkpt>
      <trkpt lat="44.40094" lon="4.38267">
        <ele>87.6</ele>
        <time>2024-02-29T10:53:22Z</time>
      </trkpt>
      <trkpt lat="44.4008" lon="4.38292">
        <ele>87.5</ele>
        <time>2024-02-29T10:53:27Z</time>
      </trkpt>
      <trkpt lat="44.40072" lon="4.38301">
        <ele>87.6</ele>
        <time>2024-02-29T10:53:29Z</time>
      </trkpt>
      <trkpt lat="44.40065" lon="4.38309">
        <ele>87.6</ele>
        <time>2024-02-29T10:53:31Z</time>
      </trkpt>
      <trkpt lat="44.40059" lon="4.3832">
        <ele>87.6</ele>
        <time>2024-02-29T10:53:33Z</time>
      </trkpt>
      <trkpt lat="44.40051" lon="4.38344">
        <ele>87.5</ele>
        <time>2024-02-29T10:53:37Z</time>
      </trkpt>
      <trkpt lat="44.40043" lon="4.38349">
        <ele>87.4</ele>
        <time>2024-02-29T10:53:39Z</time>
      </trkpt>
      <trkpt lat="44.40031" lon="4.3835">
        <ele>87.3</ele>
        <time>2024-02-29T10:53:42Z</time>
      </trkpt>
      <trkpt lat="44.40018" lon="4.3835">
        <ele>87.2</ele>
        <time>2024-02-29T10:53:45Z</time>
      </trkpt>
      <trkpt lat="44.40005" lon="4.38354">
        <ele>87.1</ele>
        <time>2024-02-29T10:53:48Z</time>
      </trkpt>
      <trkpt lat="44.39986" lon="4.38357">
        <ele>86.9</ele>
        <time>2024-02-29T10:53:52Z</time>
      </trkpt>
      <trkpt lat="44.39982" lon="4.38359">
        <ele>86.9</ele>
        <time>2024-02-29T10:53:53Z</time>
      </trkpt>
      <trkpt lat="44.39961" lon="4.38365">
        <ele>86.6</ele>
        <time>2024-02-29T10:53:57Z</time>
      </trkpt>
      <trkpt lat="44.39946" lon="4.3837">
        <ele>86.3</ele>
        <time>2024-02-29T10:54:00Z</time>
      </trkpt>
      <trkpt lat="44.39932" lon="4.38378">
        <ele>85.6</ele>
        <time>2024-02-29T10:54:03Z</time>
      </trkpt>
      <trkpt lat="44.39919" lon="4.38382">
        <ele>85</ele>
        <time>2024-02-29T10:54:06Z</time>
      </trkpt>
      <trkpt lat="44.39902" lon="4.38397">
        <ele>84.1</ele>
        <time>2024-02-29T10:54:10Z</time>
      </trkpt>
      <trkpt lat="44.39886" lon="4.38412">
        <ele>84</ele>
        <time>2024-02-29T10:54:14Z</time>
      </trkpt>
      <trkpt lat="44.39877" lon="4.38418">
        <ele>84.1</ele>
        <time>2024-02-29T10:54:15Z</time>
      </trkpt>
      <trkpt lat="44.3986" lon="4.38425">
        <ele>84.6</ele>
        <time>2024-02-29T10:54:20Z</time>
      </trkpt>
      <trkpt lat="44.39848" lon="4.38429">
        <ele>85.5</ele>
        <time>2024-02-29T10:54:23Z</time>
      </trkpt>
      <trkpt lat="44.39831" lon="4.38442">
        <ele>87.8</ele>
        <time>2024-02-29T10:54:28Z</time>
      </trkpt>
      <trkpt lat="44.39826" lon="4.38447">
        <ele>88.6</ele>
        <time>2024-02-29T10:54:30Z</time>
      </trkpt>
      <trkpt lat="44.39821" lon="4.38453">
        <ele>89.1</ele>
        <time>2024-02-29T10:54:32Z</time>
      </trkpt>
      <trkpt lat="44.39815" lon="4.38466">
        <ele>89.1</ele>
        <time>2024-02-29T10:54:35Z</time>
      </trkpt>
      <trkpt lat="44.39799" lon="4.38478">
        <ele>89</ele>
        <time>2024-02-29T10:54:39Z</time>
      </trkpt>
      <trkpt lat="44.39784" lon="4.38491">
        <ele>89</ele>
        <time>2024-02-29T10:54:43Z</time>
      </trkpt>
      <trkpt lat="44.39764" lon="4.38506">
        <ele>89</ele>
        <time>2024-02-29T10:54:48Z</time>
      </trkpt>
      <trkpt lat="44.39743" lon="4.38521">
        <ele>88.8</ele>
        <time>2024-02-29T10:54:52Z</time>
      </trkpt>
      <trkpt lat="44.39722" lon="4.38536">
        <ele>88.4</ele>
        <time>2024-02-29T10:54:57Z</time>
      </trkpt>
      <trkpt lat="44.39705" lon="4.38548">
        <ele>87.7</ele>
        <time>2024-02-29T10:55:02Z</time>
      </trkpt>
      <trkpt lat="44.39688" lon="4.3856">
        <ele>87.1</ele>
        <time>2024-02-29T10:55:06Z</time>
      </trkpt>
      <trkpt lat="44.39676" lon="4.38567">
        <ele>87</ele>
        <time>2024-02-29T10:55:09Z</time>
      </trkpt>
      <trkpt lat="44.39663" lon="4.38565">
        <ele>87.4</ele>
        <time>2024-02-29T10:55:12Z</time>
      </trkpt>
      <trkpt lat="44.39646" lon="4.38553">
        <ele>88.2</ele>
        <time>2024-02-29T10:55:16Z</time>
      </trkpt>
      <trkpt lat="44.3963" lon="4.3854">
        <ele>88.9</ele>
        <time>2024-02-29T10:55:20Z</time>
      </trkpt>
      <trkpt lat="44.39618" lon="4.3853">
        <ele>89.2</ele>
        <time>2024-02-29T10:55:23Z</time>
      </trkpt>
      <trkpt lat="44.39614" lon="4.38526">
        <ele>89.3</ele>
        <time>2024-02-29T10:55:24Z</time>
      </trkpt>
      <trkpt lat="44.39607" lon="4.3852">
        <ele>89.5</ele>
        <time>2024-02-29T10:55:26Z</time>
      </trkpt>
      <trkpt lat="44.396" lon="4.38513">
        <ele>89.6</ele>
        <time>2024-02-29T10:55:32Z</time>
      </trkpt>
      <trkpt lat="44.39604" lon="4.38512">
        <ele>89.6</ele>
        <time>2024-02-29T10:55:38Z</time>
      </trkpt>
      <trkpt lat="44.39586" lon="4.385">
        <ele>89.9</ele>
        <time>2024-02-29T10:55:46Z</time>
      </trkpt>
      <trkpt lat="44.39568" lon="4.38487">
        <ele>90.1</ele>
        <time>2024-02-29T10:55:53Z</time>
      </trkpt>
      <trkpt lat="44.39552" lon="4.38474">
        <ele>90.4</ele>
        <time>2024-02-29T10:56:00Z</time>
      </trkpt>
      <trkpt lat="44.39541" lon="4.38461">
        <ele>90.6</ele>
        <time>2024-02-29T10:56:09Z</time>
      </trkpt>
      <trkpt lat="44.39544" lon="4.38463">
        <ele>90.6</ele>
        <time>2024-02-29T10:56:11Z</time>
      </trkpt>
      <trkpt lat="44.39561" lon="4.38473">
        <ele>90.9</ele>
        <time>2024-02-29T10:56:18Z</time>
      </trkpt>
      <trkpt lat="44.39569" lon="4.38481">
        <ele>91</ele>
        <time>2024-02-29T10:56:23Z</time>
      </trkpt>
      <trkpt lat="44.39568" lon="4.3848">
        <ele>91</ele>
        <time>2024-02-29T10:56:25Z</time>
      </trkpt>
      <trkpt lat="44.39552" lon="4.38467">
        <ele>91.2</ele>
        <time>2024-02-29T10:56:28Z</time>
      </trkpt>
      <trkpt lat="44.39532" lon="4.38455">
        <ele>91.5</ele>
        <time>2024-02-29T10:56:33Z</time>
      </trkpt>
      <trkpt lat="44.3951" lon="4.38448">
        <ele>91.8</ele>
        <time>2024-02-29T10:56:37Z</time>
      </trkpt>
      <trkpt lat="44.3949" lon="4.38439">
        <ele>92</ele>
        <time>2024-02-29T10:56:41Z</time>
      </trkpt>
      <trkpt lat="44.39469" lon="4.38428">
        <ele>92.3</ele>
        <time>2024-02-29T10:56:45Z</time>
      </trkpt>
      <trkpt lat="44.3945" lon="4.38412">
        <ele>92.6</ele>
        <time>2024-02-29T10:56:49Z</time>
      </trkpt>
      <trkpt lat="44.39434" lon="4.38395">
        <ele>93.1</ele>
        <time>2024-02-29T10:56:53Z</time>
      </trkpt>
      <trkpt lat="44.39418" lon="4.38378">
        <ele>93.8</ele>
        <time>2024-02-29T10:56:57Z</time>
      </trkpt>
      <trkpt lat="44.39401" lon="4.38362">
        <ele>94.9</ele>
        <time>2024-02-29T10:57:01Z</time>
      </trkpt>
      <trkpt lat="44.39386" lon="4.38349">
        <ele>96.7</ele>
        <time>2024-02-29T10:57:05Z</time>
      </trkpt>
      <trkpt lat="44.39384" lon="4.38338">
        <ele>96.9</ele>
        <time>2024-02-29T10:57:07Z</time>
      </trkpt>
      <trkpt lat="44.39387" lon="4.38325">
        <ele>96.6</ele>
        <time>2024-02-29T10:57:09Z</time>
      </trkpt>
      <trkpt lat="44.39397" lon="4.38298">
        <ele>95.8</ele>
        <time>2024-02-29T10:57:13Z</time>
      </trkpt>
      <trkpt lat="44.39408" lon="4.38272">
        <ele>95.4</ele>
        <time>2024-02-29T10:57:17Z</time>
      </trkpt>
      <trkpt lat="44.39414" lon="4.38253">
        <ele>95.3</ele>
        <time>2024-02-29T10:57:20Z</time>
      </trkpt>
      <trkpt lat="44.39416" lon="4.3824">
        <ele>95.3</ele>
        <time>2024-02-29T10:57:22Z</time>
      </trkpt>
      <trkpt lat="44.39415" lon="4.38212">
        <ele>95.4</ele>
        <time>2024-02-29T10:57:26Z</time>
      </trkpt>
      <trkpt lat="44.39415" lon="4.382">
        <ele>95.5</ele>
        <time>2024-02-29T10:57:28Z</time>
      </trkpt>
      <trkpt lat="44.39419" lon="4.38174">
        <ele>95.8</ele>
        <time>2024-02-29T10:57:32Z</time>
      </trkpt>
      <trkpt lat="44.39422" lon="4.38149">
        <ele>96.1</ele>
        <time>2024-02-29T10:57:36Z</time>
      </trkpt>
      <trkpt lat="44.39425" lon="4.38122">
        <ele>96.6</ele>
        <time>2024-02-29T10:57:40Z</time>
      </trkpt>
      <trkpt lat="44.39426" lon="4.381">
        <ele>97.1</ele>
        <time>2024-02-29T10:57:43Z</time>
      </trkpt>
      <trkpt lat="44.39423" lon="4.38086">
        <ele>97.4</ele>
        <time>2024-02-29T10:57:45Z</time>
      </trkpt>
      <trkpt lat="44.39413" lon="4.38059">
        <ele>98.4</ele>
        <time>2024-02-29T10:57:50Z</time>
      </trkpt>
      <trkpt lat="44.394" lon="4.38035">
        <ele>99.4</ele>
        <time>2024-02-29T10:57:55Z</time>
      </trkpt>
      <trkpt lat="44.39385" lon="4.38015">
        <ele>99.4</ele>
        <time>2024-02-29T10:57:59Z</time>
      </trkpt>
      <trkpt lat="44.39382" lon="4.38009">
        <ele>99.1</ele>
        <time>2024-02-29T10:58:00Z</time>
      </trkpt>
      <trkpt lat="44.39381" lon="4.37995">
        <ele>98.6</ele>
        <time>2024-02-29T10:58:02Z</time>
      </trkpt>
      <trkpt lat="44.39382" lon="4.37967">
        <ele>97.8</ele>
        <time>2024-02-29T10:58:06Z</time>
      </trkpt>
      <trkpt lat="44.39392" lon="4.37936">
        <ele>97.1</ele>
        <time>2024-02-29T10:58:10Z</time>
      </trkpt>
      <trkpt lat="44.39402" lon="4.37922">
        <ele>96.8</ele>
        <time>2024-02-29T10:58:12Z</time>
      </trkpt>
      <trkpt lat="44.39418" lon="4.37911">
        <ele>96.6</ele>
        <time>2024-02-29T10:58:15Z</time>
      </trkpt>
      <trkpt lat="44.39428" lon="4.37909">
        <ele>96.6</ele>
        <time>2024-02-29T10:58:17Z</time>
      </trkpt>
      <trkpt lat="44.39454" lon="4.37901">
        <ele>96.7</ele>
        <time>2024-02-29T10:58:21Z</time>
      </trkpt>
      <trkpt lat="44.3947" lon="4.37898">
        <ele>96.8</ele>
        <time>2024-02-29T10:58:25Z</time>
      </trkpt>
      <trkpt lat="44.39486" lon="4.37893">
        <ele>97</ele>
        <time>2024-02-29T10:58:29Z</time>
      </trkpt>
      <trkpt lat="44.39493" lon="4.37892">
        <ele>97.1</ele>
        <time>2024-02-29T10:58:32Z</time>
      </trkpt>
      <trkpt lat="44.39494" lon="4.37893">
        <ele>97.2</ele>
        <time>2024-02-29T10:58:35Z</time>
      </trkpt>
      <trkpt lat="44.39491" lon="4.37895">
        <ele>97.2</ele>
        <time>2024-02-29T10:58:40Z</time>
      </trkpt>
      <trkpt lat="44.39491" lon="4.37895">
        <ele>97.2</ele>
        <time>2024-02-29T10:58:42Z</time>
      </trkpt>
      <trkpt lat="44.39493" lon="4.37895">
        <ele>97.2</ele>
        <time>2024-02-29T10:59:16Z</time>
      </trkpt>
      <trkpt lat="44.39496" lon="4.37895">
        <ele>97.3</ele>
        <time>2024-02-29T10:59:18Z</time>
      </trkpt>
      <trkpt lat="44.39498" lon="4.37894">
        <ele>97.3</ele>
        <time>2024-02-29T10:59:20Z</time>
      </trkpt>
      <trkpt lat="44.39504" lon="4.37889">
        <ele>97.4</ele>
        <time>2024-02-29T10:59:23Z</time>
      </trkpt>
      <trkpt lat="44.39512" lon="4.37891">
        <ele>97.4</ele>
        <time>2024-02-29T10:59:26Z</time>
      </trkpt>
      <trkpt lat="44.39525" lon="4.3791">
        <ele>97</ele>
        <time>2024-02-29T10:59:34Z</time>
      </trkpt>
      <trkpt lat="44.39536" lon="4.37932">
        <ele>96.6</ele>
        <time>2024-02-29T10:59:42Z</time>
      </trkpt>
      <trkpt lat="44.39548" lon="4.37953">
        <ele>96.1</ele>
        <time>2024-02-29T10:59:50Z</time>
      </trkpt>
      <trkpt lat="44.39561" lon="4.37973">
        <ele>95.6</ele>
        <time>2024-02-29T10:59:57Z</time>
      </trkpt>
      <trkpt lat="44.39573" lon="4.37991">
        <ele>95.3</ele>
        <time>2024-02-29T11:00:04Z</time>
      </trkpt>
      <trkpt lat="44.39587" lon="4.38009">
        <ele>95.1</ele>
        <time>2024-02-29T11:00:11Z</time>
      </trkpt>
      <trkpt lat="44.39601" lon="4.38026">
        <ele>94.8</ele>
        <time>2024-02-29T11:00:17Z</time>
      </trkpt>
      <trkpt lat="44.39615" lon="4.38047">
        <ele>94.5</ele>
        <time>2024-02-29T11:00:24Z</time>
      </trkpt>
      <trkpt lat="44.39627" lon="4.38068">
        <ele>94.2</ele>
        <time>2024-02-29T11:00:30Z</time>
      </trkpt>
      <trkpt lat="44.39637" lon="4.38091">
        <ele>94.1</ele>
        <time>2024-02-29T11:00:37Z</time>
      </trkpt>
      <trkpt lat="44.39646" lon="4.38115">
        <ele>93.9</ele>
        <time>2024-02-29T11:00:44Z</time>
      </trkpt>
      <trkpt lat="44.39655" lon="4.38138">
        <ele>93.8</ele>
        <time>2024-02-29T11:00:51Z</time>
      </trkpt>
      <trkpt lat="44.39666" lon="4.3816">
        <ele>93.8</ele>
        <time>2024-02-29T11:00:58Z</time>
      </trkpt>
      <trkpt lat="44.3968" lon="4.38179">
        <ele>93.8</ele>
        <time>2024-02-29T11:01:05Z</time>
      </trkpt>
      <trkpt lat="44.39693" lon="4.38201">
        <ele>93.9</ele>
        <time>2024-02-29T11:01:13Z</time>
      </trkpt>
      <trkpt lat="44.39703" lon="4.38223">
        <ele>94.1</ele>
        <time>2024-02-29T11:01:20Z</time>
      </trkpt>
      <trkpt lat="44.3971" lon="4.38247">
        <ele>94.2</ele>
        <time>2024-02-29T11:01:27Z</time>
      </trkpt>
      <trkpt lat="44.39722" lon="4.38266">
        <ele>94.3</ele>
        <time>2024-02-29T11:01:34Z</time>
      </trkpt>
      <trkpt lat="44.39733" lon="4.38288">
        <ele>94.4</ele>
        <time>2024-02-29T11:01:43Z</time>
      </trkpt>
      <trkpt lat="44.39745" lon="4.3831">
        <ele>95</ele>
        <time>2024-02-29T11:01:52Z</time>
      </trkpt>
      <trkpt lat="44.39757" lon="4.38332">
        <ele>95.8</ele>
        <time>2024-02-29T11:02:00Z</time>
      </trkpt>
      <trkpt lat="44.39768" lon="4.38355">
        <ele>96.6</ele>
        <time>2024-02-29T11:02:08Z</time>
      </trkpt>
      <trkpt lat="44.39777" lon="4.3838">
        <ele>97.5</ele>
        <time>2024-02-29T11:02:16Z</time>
      </trkpt>
      <trkpt lat="44.39785" lon="4.38404">
        <ele>98.4</ele>
        <time>2024-02-29T11:02:24Z</time>
      </trkpt>
      <trkpt lat="44.39798" lon="4.38424">
        <ele>99.3</ele>
        <time>2024-02-29T11:02:32Z</time>
      </trkpt>
      <trkpt lat="44.39801" lon="4.38427">
        <ele>99.4</ele>
        <time>2024-02-29T11:02:34Z</time>
      </trkpt>
      <trkpt lat="44.39807" lon="4.38429">
        <ele>99.6</ele>
        <time>2024-02-29T11:02:47Z</time>
      </trkpt>
      <trkpt lat="44.39825" lon="4.38442">
        <ele>100.2</ele>
        <time>2024-02-29T11:02:56Z</time>
      </trkpt>
      <trkpt lat="44.39832" lon="4.38435">
        <ele>100.5</ele>
        <time>2024-02-29T11:03:02Z</time>
      </trkpt>
      <trkpt lat="44.3983" lon="4.38438">
        <ele>100.6</ele>
        <time>2024-02-29T11:03:04Z</time>
      </trkpt>
      <trkpt lat="44.39825" lon="4.38442">
        <ele>100.6</ele>
        <time>2024-02-29T11:03:08Z</time>
      </trkpt>
      <trkpt lat="44.39814" lon="4.38434">
        <ele>100.1</ele>
        <time>2024-02-29T11:03:16Z</time>
      </trkpt>
      <trkpt lat="44.398" lon="4.38426">
        <ele>99.4</ele>
        <time>2024-02-29T11:04:09Z</time>
      </trkpt>
      <trkpt lat="44.39798" lon="4.38424">
        <ele>99.3</ele>
        <time>2024-02-29T11:04:11Z</time>
      </trkpt>
      <trkpt lat="44.39787" lon="4.38403">
        <ele>98.5</ele>
        <time>2024-02-29T11:04:19Z</time>
      </trkpt>
      <trkpt lat="44.39775" lon="4.3838">
        <ele>97.5</ele>
        <time>2024-02-29T11:04:27Z</time>
      </trkpt>
      <trkpt lat="44.39765" lon="4.38357">
        <ele>96.6</ele>
        <time>2024-02-29T11:04:35Z</time>
      </trkpt>
      <trkpt lat="44.39756" lon="4.38335">
        <ele>95.8</ele>
        <time>2024-02-29T11:04:44Z</time>
      </trkpt>
      <trkpt lat="44.39746" lon="4.38313">
        <ele>95.1</ele>
        <time>2024-02-29T11:04:52Z</time>
      </trkpt>
      <trkpt lat="44.39735" lon="4.3829">
        <ele>94.5</ele>
        <time>2024-02-29T11:05:01Z</time>
      </trkpt>
      <trkpt lat="44.39734" lon="4.38287">
        <ele>94.4</ele>
        <time>2024-02-29T11:05:03Z</time>
      </trkpt>
      <trkpt lat="44.39748" lon="4.38304">
        <ele>94.9</ele>
        <time>2024-02-29T11:05:12Z</time>
      </trkpt>
      <trkpt lat="44.39761" lon="4.38323">
        <ele>95.7</ele>
        <time>2024-02-29T11:05:20Z</time>
      </trkpt>
      <trkpt lat="44.39774" lon="4.38344">
        <ele>96.5</ele>
        <time>2024-02-29T11:05:29Z</time>
      </trkpt>
      <trkpt lat="44.39785" lon="4.38364">
        <ele>97.4</ele>
        <time>2024-02-29T11:05:37Z</time>
      </trkpt>
      <trkpt lat="44.39797" lon="4.38385">
        <ele>98.3</ele>
        <time>2024-02-29T11:05:45Z</time>
      </trkpt>
      <trkpt lat="44.39808" lon="4.38404">
        <ele>99.1</ele>
        <time>2024-02-29T11:05:53Z</time>
      </trkpt>
      <trkpt lat="44.39819" lon="4.38424">
        <ele>100</ele>
        <time>2024-02-29T11:06:01Z</time>
      </trkpt>
      <trkpt lat="44.39831" lon="4.38446">
        <ele>100.9</ele>
        <time>2024-02-29T11:06:09Z</time>
      </trkpt>
      <trkpt lat="44.39842" lon="4.38467">
        <ele>101.5</ele>
        <time>2024-02-29T11:06:17Z</time>
      </trkpt>
      <trkpt lat="44.39855" lon="4.38489">
        <ele>102</ele>
        <time>2024-02-29T11:06:25Z</time>
      </trkpt>
      <trkpt lat="44.39868" lon="4.3851">
        <ele>102.4</ele>
        <time>2024-02-29T11:06:32Z</time>
      </trkpt>
      <trkpt lat="44.39881" lon="4.38532">
        <ele>102.5</ele>
        <time>2024-02-29T11:06:39Z</time>
      </trkpt>
      <trkpt lat="44.39893" lon="4.38552">
        <ele>102.5</ele>
        <time>2024-02-29T11:06:46Z</time>
      </trkpt>
      <trkpt lat="44.39904" lon="4.38572">
        <ele>102.3</ele>
        <time>2024-02-29T11:06:53Z</time>
      </trkpt>
      <trkpt lat="44.39916" lon="4.38593">
        <ele>102.3</ele>
        <time>2024-02-29T11:07:00Z</time>
      </trkpt>
      <trkpt lat="44.39929" lon="4.38614">
        <ele>102.3</ele>
        <time>2024-02-29T11:07:08Z</time>
      </trkpt>
      <trkpt lat="44.39941" lon="4.38635">
        <ele>102.6</ele>
        <time>2024-02-29T11:07:16Z</time>
      </trkpt>
      <trkpt lat="44.39954" lon="4.38658">
        <ele>103.1</ele>
        <time>2024-02-29T11:07:24Z</time>
      </trkpt>
      <trkpt lat="44.39967" lon="4.38678">
        <ele>103.6</ele>
        <time>2024-02-29T11:07:32Z</time>
      </trkpt>
      <trkpt lat="44.39973" lon="4.38697">
        <ele>104</ele>
        <time>2024-02-29T11:07:40Z</time>
      </trkpt>
      <trkpt lat="44.39971" lon="4.38697">
        <ele>103.9</ele>
        <time>2024-02-29T11:07:42Z</time>
      </trkpt>
      <trkpt lat="44.39956" lon="4.38684">
        <ele>103.6</ele>
        <time>2024-02-29T11:07:52Z</time>
      </trkpt>
      <trkpt lat="44.3994" lon="4.38697">
        <ele>103</ele>
        <time>2024-02-29T11:08:00Z</time>
      </trkpt>
      <trkpt lat="44.39923" lon="4.38712">
        <ele>102.5</ele>
        <time>2024-02-29T11:08:08Z</time>
      </trkpt>
      <trkpt lat="44.39907" lon="4.38726">
        <ele>102.1</ele>
        <time>2024-02-29T11:08:14Z</time>
      </trkpt>
      <trkpt lat="44.39891" lon="4.3874">
        <ele>101.7</ele>
        <time>2024-02-29T11:08:20Z</time>
      </trkpt>
      <trkpt lat="44.39874" lon="4.38738">
        <ele>101.4</ele>
        <time>2024-02-29T11:08:28Z</time>
      </trkpt>
      <trkpt lat="44.3987" lon="4.38735">
        <ele>101.3</ele>
        <time>2024-02-29T11:08:31Z</time>
      </trkpt>
    </trkseg>
  </trk>
</gpx>